<?xml version="1.0" encoding="UTF-8" standalone="no" ?>
<gpx xmlns="http://www.topografix.com/GPX/1/1" xmlns:xsi="http://www.w3.org/2001/XMLSchema-instance" xsi:schemaLocation="http://www.topografix.com/GPX/1/1 http://www.topografix.com/GPX/1/1/gpx.xsd" version="1.1" creator="VisuGPX - https://www.visugpx.com">
  <metadata>
    <name>greo rouge</name>
  </metadata>
  <trk>
    <name><![CDATA[greo rouge_1]]></name>
    <trkseg>
      <trkpt lat="43.83136" lon="6.95167">
        <ele>1401.26</ele>
        <time>2021-01-06T10:01:02Z</time>
      </trkpt>
      <trkpt lat="43.83136" lon="6.95168">
        <ele>1399.82</ele>
        <time>2021-01-06T10:01:07Z</time>
      </trkpt>
      <trkpt lat="43.83136" lon="6.9517">
        <ele>1400.78</ele>
        <time>2021-01-06T10:01:15Z</time>
      </trkpt>
      <trkpt lat="43.83134" lon="6.95168">
        <ele>1400.78</ele>
        <time>2021-01-06T10:01:31Z</time>
      </trkpt>
      <trkpt lat="43.83133" lon="6.95168">
        <ele>1401.26</ele>
        <time>2021-01-06T10:01:50Z</time>
      </trkpt>
      <trkpt lat="43.83133" lon="6.95167">
        <ele>1400.3</ele>
        <time>2021-01-06T10:02:17Z</time>
      </trkpt>
      <trkpt lat="43.83133" lon="6.95167">
        <ele>1401.74</ele>
        <time>2021-01-06T10:02:20Z</time>
      </trkpt>
      <trkpt lat="43.83134" lon="6.95167">
        <ele>1400.3</ele>
        <time>2021-01-06T10:02:22Z</time>
      </trkpt>
      <trkpt lat="43.83135" lon="6.95166">
        <ele>1401.74</ele>
        <time>2021-01-06T10:02:24Z</time>
      </trkpt>
      <trkpt lat="43.83135" lon="6.95169">
        <ele>1401.74</ele>
        <time>2021-01-06T10:02:48Z</time>
      </trkpt>
      <trkpt lat="43.83135" lon="6.95177">
        <ele>1400.78</ele>
        <time>2021-01-06T10:02:51Z</time>
      </trkpt>
      <trkpt lat="43.83141" lon="6.95236">
        <ele>1400.78</ele>
        <time>2021-01-06T10:03:07Z</time>
      </trkpt>
      <trkpt lat="43.83144" lon="6.95253">
        <ele>1401.74</ele>
        <time>2021-01-06T10:03:13Z</time>
      </trkpt>
      <trkpt lat="43.83143" lon="6.95268">
        <ele>1401.26</ele>
        <time>2021-01-06T10:03:18Z</time>
      </trkpt>
      <trkpt lat="43.83134" lon="6.95299">
        <ele>1402.22</ele>
        <time>2021-01-06T10:03:28Z</time>
      </trkpt>
      <trkpt lat="43.83124" lon="6.95319">
        <ele>1402.7</ele>
        <time>2021-01-06T10:03:35Z</time>
      </trkpt>
      <trkpt lat="43.83121" lon="6.95324">
        <ele>1401.26</ele>
        <time>2021-01-06T10:03:37Z</time>
      </trkpt>
      <trkpt lat="43.83115" lon="6.95331">
        <ele>1401.26</ele>
        <time>2021-01-06T10:03:40Z</time>
      </trkpt>
      <trkpt lat="43.83113" lon="6.95333">
        <ele>1401.26</ele>
        <time>2021-01-06T10:03:41Z</time>
      </trkpt>
      <trkpt lat="43.83104" lon="6.95341">
        <ele>1402.7</ele>
        <time>2021-01-06T10:03:47Z</time>
      </trkpt>
      <trkpt lat="43.831" lon="6.95343">
        <ele>1403.66</ele>
        <time>2021-01-06T10:03:51Z</time>
      </trkpt>
      <trkpt lat="43.83086" lon="6.95342">
        <ele>1404.62</ele>
        <time>2021-01-06T10:04:00Z</time>
      </trkpt>
      <trkpt lat="43.83072" lon="6.95339">
        <ele>1406.07</ele>
        <time>2021-01-06T10:04:10Z</time>
      </trkpt>
      <trkpt lat="43.83061" lon="6.95333">
        <ele>1406.07</ele>
        <time>2021-01-06T10:04:17Z</time>
      </trkpt>
      <trkpt lat="43.8305" lon="6.95327">
        <ele>1406.07</ele>
        <time>2021-01-06T10:04:23Z</time>
      </trkpt>
      <trkpt lat="43.83045" lon="6.95325">
        <ele>1406.07</ele>
        <time>2021-01-06T10:04:26Z</time>
      </trkpt>
      <trkpt lat="43.83028" lon="6.95319">
        <ele>1406.07</ele>
        <time>2021-01-06T10:04:35Z</time>
      </trkpt>
      <trkpt lat="43.83026" lon="6.95318">
        <ele>1406.55</ele>
        <time>2021-01-06T10:04:36Z</time>
      </trkpt>
      <trkpt lat="43.83006" lon="6.95311">
        <ele>1405.1</ele>
        <time>2021-01-06T10:04:45Z</time>
      </trkpt>
      <trkpt lat="43.82985" lon="6.95303">
        <ele>1405.1</ele>
        <time>2021-01-06T10:04:55Z</time>
      </trkpt>
      <trkpt lat="43.82981" lon="6.953">
        <ele>1405.1</ele>
        <time>2021-01-06T10:04:57Z</time>
      </trkpt>
      <trkpt lat="43.82965" lon="6.95294">
        <ele>1405.58</ele>
        <time>2021-01-06T10:05:07Z</time>
      </trkpt>
      <trkpt lat="43.8296" lon="6.95291">
        <ele>1407.03</ele>
        <time>2021-01-06T10:05:10Z</time>
      </trkpt>
      <trkpt lat="43.8295" lon="6.95287">
        <ele>1407.51</ele>
        <time>2021-01-06T10:05:19Z</time>
      </trkpt>
      <trkpt lat="43.82949" lon="6.95287">
        <ele>1407.51</ele>
        <time>2021-01-06T10:05:20Z</time>
      </trkpt>
      <trkpt lat="43.8294" lon="6.95281">
        <ele>1408.47</ele>
        <time>2021-01-06T10:05:30Z</time>
      </trkpt>
      <trkpt lat="43.82938" lon="6.95279">
        <ele>1409.43</ele>
        <time>2021-01-06T10:05:33Z</time>
      </trkpt>
      <trkpt lat="43.8293" lon="6.95276">
        <ele>1409.91</ele>
        <time>2021-01-06T10:05:40Z</time>
      </trkpt>
      <trkpt lat="43.82925" lon="6.95274">
        <ele>1409.91</ele>
        <time>2021-01-06T10:05:45Z</time>
      </trkpt>
      <trkpt lat="43.82911" lon="6.95266">
        <ele>1410.87</ele>
        <time>2021-01-06T10:05:57Z</time>
      </trkpt>
      <trkpt lat="43.829" lon="6.95262">
        <ele>1410.39</ele>
        <time>2021-01-06T10:06:04Z</time>
      </trkpt>
      <trkpt lat="43.82896" lon="6.9526">
        <ele>1410.39</ele>
        <time>2021-01-06T10:06:07Z</time>
      </trkpt>
      <trkpt lat="43.82893" lon="6.95258">
        <ele>1410.39</ele>
        <time>2021-01-06T10:06:09Z</time>
      </trkpt>
      <trkpt lat="43.8289" lon="6.95257">
        <ele>1411.83</ele>
        <time>2021-01-06T10:06:11Z</time>
      </trkpt>
      <trkpt lat="43.82882" lon="6.95254">
        <ele>1410.87</ele>
        <time>2021-01-06T10:06:17Z</time>
      </trkpt>
      <trkpt lat="43.82879" lon="6.95252">
        <ele>1412.79</ele>
        <time>2021-01-06T10:06:20Z</time>
      </trkpt>
      <trkpt lat="43.82876" lon="6.95251">
        <ele>1412.79</ele>
        <time>2021-01-06T10:06:24Z</time>
      </trkpt>
      <trkpt lat="43.82865" lon="6.95245">
        <ele>1413.28</ele>
        <time>2021-01-06T10:06:35Z</time>
      </trkpt>
      <trkpt lat="43.82856" lon="6.95242">
        <ele>1413.28</ele>
        <time>2021-01-06T10:06:45Z</time>
      </trkpt>
      <trkpt lat="43.82854" lon="6.95241">
        <ele>1414.24</ele>
        <time>2021-01-06T10:06:47Z</time>
      </trkpt>
      <trkpt lat="43.82851" lon="6.9524">
        <ele>1414.72</ele>
        <time>2021-01-06T10:06:50Z</time>
      </trkpt>
      <trkpt lat="43.82843" lon="6.95238">
        <ele>1414.72</ele>
        <time>2021-01-06T10:06:56Z</time>
      </trkpt>
      <trkpt lat="43.82836" lon="6.95235">
        <ele>1414.24</ele>
        <time>2021-01-06T10:07:00Z</time>
      </trkpt>
      <trkpt lat="43.82823" lon="6.9523">
        <ele>1415.2</ele>
        <time>2021-01-06T10:07:07Z</time>
      </trkpt>
      <trkpt lat="43.8281" lon="6.95226">
        <ele>1415.68</ele>
        <time>2021-01-06T10:07:14Z</time>
      </trkpt>
      <trkpt lat="43.82802" lon="6.95225">
        <ele>1415.68</ele>
        <time>2021-01-06T10:07:20Z</time>
      </trkpt>
      <trkpt lat="43.82787" lon="6.9522">
        <ele>1417.12</ele>
        <time>2021-01-06T10:07:30Z</time>
      </trkpt>
      <trkpt lat="43.82771" lon="6.95214">
        <ele>1417.12</ele>
        <time>2021-01-06T10:07:40Z</time>
      </trkpt>
      <trkpt lat="43.82757" lon="6.95207">
        <ele>1418.56</ele>
        <time>2021-01-06T10:07:50Z</time>
      </trkpt>
      <trkpt lat="43.82749" lon="6.95205">
        <ele>1419.04</ele>
        <time>2021-01-06T10:07:57Z</time>
      </trkpt>
      <trkpt lat="43.82748" lon="6.95204">
        <ele>1419.04</ele>
        <time>2021-01-06T10:07:58Z</time>
      </trkpt>
      <trkpt lat="43.8274" lon="6.95202">
        <ele>1419.52</ele>
        <time>2021-01-06T10:08:06Z</time>
      </trkpt>
      <trkpt lat="43.82728" lon="6.95199">
        <ele>1420.49</ele>
        <time>2021-01-06T10:08:15Z</time>
      </trkpt>
      <trkpt lat="43.82716" lon="6.95195">
        <ele>1421.45</ele>
        <time>2021-01-06T10:08:23Z</time>
      </trkpt>
      <trkpt lat="43.82706" lon="6.95194">
        <ele>1421.45</ele>
        <time>2021-01-06T10:08:30Z</time>
      </trkpt>
      <trkpt lat="43.82696" lon="6.95195">
        <ele>1422.41</ele>
        <time>2021-01-06T10:08:37Z</time>
      </trkpt>
      <trkpt lat="43.82685" lon="6.95196">
        <ele>1422.89</ele>
        <time>2021-01-06T10:08:46Z</time>
      </trkpt>
      <trkpt lat="43.82671" lon="6.95197">
        <ele>1423.37</ele>
        <time>2021-01-06T10:08:55Z</time>
      </trkpt>
      <trkpt lat="43.82657" lon="6.95198">
        <ele>1424.33</ele>
        <time>2021-01-06T10:09:03Z</time>
      </trkpt>
      <trkpt lat="43.82648" lon="6.952">
        <ele>1424.33</ele>
        <time>2021-01-06T10:09:08Z</time>
      </trkpt>
      <trkpt lat="43.82633" lon="6.95201">
        <ele>1424.33</ele>
        <time>2021-01-06T10:09:16Z</time>
      </trkpt>
      <trkpt lat="43.8262" lon="6.95202">
        <ele>1425.29</ele>
        <time>2021-01-06T10:09:24Z</time>
      </trkpt>
      <trkpt lat="43.82618" lon="6.95202">
        <ele>1425.29</ele>
        <time>2021-01-06T10:09:25Z</time>
      </trkpt>
      <trkpt lat="43.82601" lon="6.95202">
        <ele>1425.29</ele>
        <time>2021-01-06T10:09:34Z</time>
      </trkpt>
      <trkpt lat="43.8259" lon="6.95201">
        <ele>1425.77</ele>
        <time>2021-01-06T10:09:41Z</time>
      </trkpt>
      <trkpt lat="43.82584" lon="6.952">
        <ele>1425.77</ele>
        <time>2021-01-06T10:09:45Z</time>
      </trkpt>
      <trkpt lat="43.82579" lon="6.95199">
        <ele>1425.77</ele>
        <time>2021-01-06T10:09:49Z</time>
      </trkpt>
      <trkpt lat="43.82569" lon="6.95197">
        <ele>1426.73</ele>
        <time>2021-01-06T10:09:56Z</time>
      </trkpt>
      <trkpt lat="43.82564" lon="6.95195">
        <ele>1427.21</ele>
        <time>2021-01-06T10:10:00Z</time>
      </trkpt>
      <trkpt lat="43.82552" lon="6.95195">
        <ele>1428.18</ele>
        <time>2021-01-06T10:10:09Z</time>
      </trkpt>
      <trkpt lat="43.82542" lon="6.95192">
        <ele>1428.18</ele>
        <time>2021-01-06T10:10:16Z</time>
      </trkpt>
      <trkpt lat="43.82533" lon="6.95188">
        <ele>1429.14</ele>
        <time>2021-01-06T10:10:23Z</time>
      </trkpt>
      <trkpt lat="43.82525" lon="6.95183">
        <ele>1430.1</ele>
        <time>2021-01-06T10:10:31Z</time>
      </trkpt>
      <trkpt lat="43.82521" lon="6.9518">
        <ele>1430.1</ele>
        <time>2021-01-06T10:10:36Z</time>
      </trkpt>
      <trkpt lat="43.82513" lon="6.95178">
        <ele>1431.06</ele>
        <time>2021-01-06T10:10:43Z</time>
      </trkpt>
      <trkpt lat="43.82506" lon="6.95174">
        <ele>1432.98</ele>
        <time>2021-01-06T10:10:52Z</time>
      </trkpt>
      <trkpt lat="43.82499" lon="6.95174">
        <ele>1433.46</ele>
        <time>2021-01-06T10:10:59Z</time>
      </trkpt>
      <trkpt lat="43.82491" lon="6.95178">
        <ele>1435.39</ele>
        <time>2021-01-06T10:11:09Z</time>
      </trkpt>
      <trkpt lat="43.82488" lon="6.95181">
        <ele>1435.87</ele>
        <time>2021-01-06T10:11:13Z</time>
      </trkpt>
      <trkpt lat="43.82488" lon="6.95184">
        <ele>1435.87</ele>
        <time>2021-01-06T10:11:15Z</time>
      </trkpt>
      <trkpt lat="43.82487" lon="6.95188">
        <ele>1436.83</ele>
        <time>2021-01-06T10:11:18Z</time>
      </trkpt>
      <trkpt lat="43.82487" lon="6.95201">
        <ele>1438.75</ele>
        <time>2021-01-06T10:11:28Z</time>
      </trkpt>
      <trkpt lat="43.82488" lon="6.95212">
        <ele>1439.23</ele>
        <time>2021-01-06T10:11:36Z</time>
      </trkpt>
      <trkpt lat="43.8249" lon="6.95216">
        <ele>1439.23</ele>
        <time>2021-01-06T10:11:39Z</time>
      </trkpt>
      <trkpt lat="43.82493" lon="6.95221">
        <ele>1440.19</ele>
        <time>2021-01-06T10:11:43Z</time>
      </trkpt>
      <trkpt lat="43.82498" lon="6.95233">
        <ele>1440.67</ele>
        <time>2021-01-06T10:11:52Z</time>
      </trkpt>
      <trkpt lat="43.825" lon="6.95237">
        <ele>1441.15</ele>
        <time>2021-01-06T10:11:55Z</time>
      </trkpt>
      <trkpt lat="43.82503" lon="6.95251">
        <ele>1442.11</ele>
        <time>2021-01-06T10:12:04Z</time>
      </trkpt>
      <trkpt lat="43.82505" lon="6.95258">
        <ele>1442.6</ele>
        <time>2021-01-06T10:12:09Z</time>
      </trkpt>
      <trkpt lat="43.82508" lon="6.95275">
        <ele>1444.04</ele>
        <time>2021-01-06T10:12:21Z</time>
      </trkpt>
      <trkpt lat="43.82512" lon="6.95288">
        <ele>1445.48</ele>
        <time>2021-01-06T10:12:29Z</time>
      </trkpt>
      <trkpt lat="43.82519" lon="6.95303">
        <ele>1446.44</ele>
        <time>2021-01-06T10:12:39Z</time>
      </trkpt>
      <trkpt lat="43.82525" lon="6.95317">
        <ele>1447.4</ele>
        <time>2021-01-06T10:12:48Z</time>
      </trkpt>
      <trkpt lat="43.82528" lon="6.95324">
        <ele>1448.36</ele>
        <time>2021-01-06T10:12:53Z</time>
      </trkpt>
      <trkpt lat="43.82539" lon="6.9534">
        <ele>1449.32</ele>
        <time>2021-01-06T10:13:04Z</time>
      </trkpt>
      <trkpt lat="43.82552" lon="6.95353">
        <ele>1449.81</ele>
        <time>2021-01-06T10:13:14Z</time>
      </trkpt>
      <trkpt lat="43.82571" lon="6.95372">
        <ele>1448.84</ele>
        <time>2021-01-06T10:13:24Z</time>
      </trkpt>
      <trkpt lat="43.8259" lon="6.95379">
        <ele>1447.88</ele>
        <time>2021-01-06T10:13:31Z</time>
      </trkpt>
      <trkpt lat="43.82618" lon="6.95374">
        <ele>1448.36</ele>
        <time>2021-01-06T10:13:39Z</time>
      </trkpt>
      <trkpt lat="43.82642" lon="6.95368">
        <ele>1446.92</ele>
        <time>2021-01-06T10:13:48Z</time>
      </trkpt>
      <trkpt lat="43.82673" lon="6.9537">
        <ele>1448.84</ele>
        <time>2021-01-06T10:14:02Z</time>
      </trkpt>
      <trkpt lat="43.82705" lon="6.95386">
        <ele>1449.32</ele>
        <time>2021-01-06T10:14:16Z</time>
      </trkpt>
      <trkpt lat="43.82729" lon="6.95397">
        <ele>1449.81</ele>
        <time>2021-01-06T10:14:26Z</time>
      </trkpt>
      <trkpt lat="43.82738" lon="6.95402">
        <ele>1449.81</ele>
        <time>2021-01-06T10:14:31Z</time>
      </trkpt>
      <trkpt lat="43.82745" lon="6.95406">
        <ele>1450.29</ele>
        <time>2021-01-06T10:14:35Z</time>
      </trkpt>
      <trkpt lat="43.82754" lon="6.95412">
        <ele>1450.77</ele>
        <time>2021-01-06T10:14:41Z</time>
      </trkpt>
      <trkpt lat="43.82779" lon="6.95435">
        <ele>1447.88</ele>
        <time>2021-01-06T10:14:51Z</time>
      </trkpt>
      <trkpt lat="43.82798" lon="6.95458">
        <ele>1448.84</ele>
        <time>2021-01-06T10:15:03Z</time>
      </trkpt>
      <trkpt lat="43.828" lon="6.95463">
        <ele>1448.84</ele>
        <time>2021-01-06T10:15:06Z</time>
      </trkpt>
      <trkpt lat="43.82798" lon="6.95481">
        <ele>1450.77</ele>
        <time>2021-01-06T10:15:16Z</time>
      </trkpt>
      <trkpt lat="43.82797" lon="6.95483">
        <ele>1450.77</ele>
        <time>2021-01-06T10:15:18Z</time>
      </trkpt>
      <trkpt lat="43.82791" lon="6.95488">
        <ele>1452.21</ele>
        <time>2021-01-06T10:15:24Z</time>
      </trkpt>
      <trkpt lat="43.82787" lon="6.9549">
        <ele>1453.65</ele>
        <time>2021-01-06T10:15:28Z</time>
      </trkpt>
      <trkpt lat="43.82783" lon="6.95491">
        <ele>1453.65</ele>
        <time>2021-01-06T10:15:33Z</time>
      </trkpt>
      <trkpt lat="43.82776" lon="6.95493">
        <ele>1455.09</ele>
        <time>2021-01-06T10:15:39Z</time>
      </trkpt>
      <trkpt lat="43.8277" lon="6.95495">
        <ele>1455.57</ele>
        <time>2021-01-06T10:15:43Z</time>
      </trkpt>
      <trkpt lat="43.82756" lon="6.95503">
        <ele>1457.02</ele>
        <time>2021-01-06T10:15:55Z</time>
      </trkpt>
      <trkpt lat="43.82754" lon="6.95504">
        <ele>1457.02</ele>
        <time>2021-01-06T10:15:57Z</time>
      </trkpt>
      <trkpt lat="43.82749" lon="6.9551">
        <ele>1457.98</ele>
        <time>2021-01-06T10:16:02Z</time>
      </trkpt>
      <trkpt lat="43.82745" lon="6.95512">
        <ele>1457.98</ele>
        <time>2021-01-06T10:16:06Z</time>
      </trkpt>
      <trkpt lat="43.8273" lon="6.9553">
        <ele>1459.42</ele>
        <time>2021-01-06T10:16:18Z</time>
      </trkpt>
      <trkpt lat="43.82726" lon="6.95547">
        <ele>1460.86</ele>
        <time>2021-01-06T10:16:26Z</time>
      </trkpt>
      <trkpt lat="43.82726" lon="6.95549">
        <ele>1460.86</ele>
        <time>2021-01-06T10:16:27Z</time>
      </trkpt>
      <trkpt lat="43.82728" lon="6.95554">
        <ele>1460.86</ele>
        <time>2021-01-06T10:16:30Z</time>
      </trkpt>
      <trkpt lat="43.82735" lon="6.95561">
        <ele>1460.86</ele>
        <time>2021-01-06T10:16:35Z</time>
      </trkpt>
      <trkpt lat="43.82742" lon="6.95565">
        <ele>1461.82</ele>
        <time>2021-01-06T10:16:40Z</time>
      </trkpt>
      <trkpt lat="43.82749" lon="6.95573">
        <ele>1461.82</ele>
        <time>2021-01-06T10:16:46Z</time>
      </trkpt>
      <trkpt lat="43.82755" lon="6.95583">
        <ele>1462.3</ele>
        <time>2021-01-06T10:16:52Z</time>
      </trkpt>
      <trkpt lat="43.82752" lon="6.95611">
        <ele>1461.82</ele>
        <time>2021-01-06T10:17:04Z</time>
      </trkpt>
      <trkpt lat="43.82741" lon="6.95634">
        <ele>1459.9</ele>
        <time>2021-01-06T10:17:10Z</time>
      </trkpt>
      <trkpt lat="43.82733" lon="6.95646">
        <ele>1460.86</ele>
        <time>2021-01-06T10:17:17Z</time>
      </trkpt>
      <trkpt lat="43.82725" lon="6.95646">
        <ele>1461.82</ele>
        <time>2021-01-06T10:17:22Z</time>
      </trkpt>
      <trkpt lat="43.8272" lon="6.95643">
        <ele>1462.3</ele>
        <time>2021-01-06T10:17:26Z</time>
      </trkpt>
      <trkpt lat="43.82715" lon="6.95639">
        <ele>1462.3</ele>
        <time>2021-01-06T10:17:30Z</time>
      </trkpt>
      <trkpt lat="43.82706" lon="6.9563">
        <ele>1462.78</ele>
        <time>2021-01-06T10:17:37Z</time>
      </trkpt>
      <trkpt lat="43.82704" lon="6.95629">
        <ele>1462.78</ele>
        <time>2021-01-06T10:17:38Z</time>
      </trkpt>
      <trkpt lat="43.8269" lon="6.95622">
        <ele>1463.74</ele>
        <time>2021-01-06T10:17:48Z</time>
      </trkpt>
      <trkpt lat="43.82679" lon="6.95613">
        <ele>1464.23</ele>
        <time>2021-01-06T10:17:58Z</time>
      </trkpt>
      <trkpt lat="43.82669" lon="6.95609">
        <ele>1465.19</ele>
        <time>2021-01-06T10:18:06Z</time>
      </trkpt>
      <trkpt lat="43.8266" lon="6.95607">
        <ele>1467.11</ele>
        <time>2021-01-06T10:18:14Z</time>
      </trkpt>
      <trkpt lat="43.82649" lon="6.95608">
        <ele>1467.59</ele>
        <time>2021-01-06T10:18:21Z</time>
      </trkpt>
      <trkpt lat="43.82629" lon="6.95606">
        <ele>1467.59</ele>
        <time>2021-01-06T10:18:30Z</time>
      </trkpt>
      <trkpt lat="43.8262" lon="6.95606">
        <ele>1468.55</ele>
        <time>2021-01-06T10:18:37Z</time>
      </trkpt>
      <trkpt lat="43.82611" lon="6.95606">
        <ele>1469.03</ele>
        <time>2021-01-06T10:18:44Z</time>
      </trkpt>
      <trkpt lat="43.82606" lon="6.95605">
        <ele>1469.99</ele>
        <time>2021-01-06T10:18:47Z</time>
      </trkpt>
      <trkpt lat="43.82596" lon="6.95604">
        <ele>1469.99</ele>
        <time>2021-01-06T10:18:55Z</time>
      </trkpt>
      <trkpt lat="43.82592" lon="6.95605">
        <ele>1470.95</ele>
        <time>2021-01-06T10:18:58Z</time>
      </trkpt>
      <trkpt lat="43.82587" lon="6.95605">
        <ele>1471.44</ele>
        <time>2021-01-06T10:19:02Z</time>
      </trkpt>
      <trkpt lat="43.82578" lon="6.95606">
        <ele>1472.4</ele>
        <time>2021-01-06T10:19:09Z</time>
      </trkpt>
      <trkpt lat="43.82566" lon="6.95608">
        <ele>1473.36</ele>
        <time>2021-01-06T10:19:20Z</time>
      </trkpt>
      <trkpt lat="43.82554" lon="6.95612">
        <ele>1474.8</ele>
        <time>2021-01-06T10:19:30Z</time>
      </trkpt>
      <trkpt lat="43.82544" lon="6.95623">
        <ele>1476.24</ele>
        <time>2021-01-06T10:19:40Z</time>
      </trkpt>
      <trkpt lat="43.82543" lon="6.95624">
        <ele>1476.24</ele>
        <time>2021-01-06T10:19:41Z</time>
      </trkpt>
      <trkpt lat="43.8254" lon="6.95629">
        <ele>1476.24</ele>
        <time>2021-01-06T10:19:44Z</time>
      </trkpt>
      <trkpt lat="43.82532" lon="6.95643">
        <ele>1476.72</ele>
        <time>2021-01-06T10:19:52Z</time>
      </trkpt>
      <trkpt lat="43.82529" lon="6.95649">
        <ele>1477.2</ele>
        <time>2021-01-06T10:19:56Z</time>
      </trkpt>
      <trkpt lat="43.82522" lon="6.95659">
        <ele>1478.65</ele>
        <time>2021-01-06T10:20:07Z</time>
      </trkpt>
      <trkpt lat="43.82519" lon="6.95662">
        <ele>1479.61</ele>
        <time>2021-01-06T10:20:11Z</time>
      </trkpt>
      <trkpt lat="43.82514" lon="6.95661">
        <ele>1479.61</ele>
        <time>2021-01-06T10:20:15Z</time>
      </trkpt>
      <trkpt lat="43.82509" lon="6.95661">
        <ele>1480.57</ele>
        <time>2021-01-06T10:20:19Z</time>
      </trkpt>
      <trkpt lat="43.82497" lon="6.95657">
        <ele>1481.05</ele>
        <time>2021-01-06T10:20:27Z</time>
      </trkpt>
      <trkpt lat="43.82485" lon="6.95654">
        <ele>1481.53</ele>
        <time>2021-01-06T10:20:35Z</time>
      </trkpt>
      <trkpt lat="43.82464" lon="6.95661">
        <ele>1482.01</ele>
        <time>2021-01-06T10:20:47Z</time>
      </trkpt>
      <trkpt lat="43.82453" lon="6.95664">
        <ele>1482.01</ele>
        <time>2021-01-06T10:20:54Z</time>
      </trkpt>
      <trkpt lat="43.82444" lon="6.95666">
        <ele>1483.45</ele>
        <time>2021-01-06T10:21:01Z</time>
      </trkpt>
      <trkpt lat="43.82436" lon="6.95667">
        <ele>1484.41</ele>
        <time>2021-01-06T10:21:07Z</time>
      </trkpt>
      <trkpt lat="43.82426" lon="6.95668">
        <ele>1484.41</ele>
        <time>2021-01-06T10:21:14Z</time>
      </trkpt>
      <trkpt lat="43.82417" lon="6.95669">
        <ele>1485.37</ele>
        <time>2021-01-06T10:21:21Z</time>
      </trkpt>
      <trkpt lat="43.82415" lon="6.95669">
        <ele>1485.37</ele>
        <time>2021-01-06T10:21:22Z</time>
      </trkpt>
      <trkpt lat="43.82406" lon="6.95669">
        <ele>1486.34</ele>
        <time>2021-01-06T10:21:29Z</time>
      </trkpt>
      <trkpt lat="43.82392" lon="6.95669">
        <ele>1487.3</ele>
        <time>2021-01-06T10:21:39Z</time>
      </trkpt>
      <trkpt lat="43.82389" lon="6.9567">
        <ele>1487.3</ele>
        <time>2021-01-06T10:21:41Z</time>
      </trkpt>
      <trkpt lat="43.82384" lon="6.9567">
        <ele>1487.78</ele>
        <time>2021-01-06T10:21:45Z</time>
      </trkpt>
      <trkpt lat="43.82368" lon="6.95662">
        <ele>1490.18</ele>
        <time>2021-01-06T10:21:59Z</time>
      </trkpt>
      <trkpt lat="43.82367" lon="6.95662">
        <ele>1490.18</ele>
        <time>2021-01-06T10:22:00Z</time>
      </trkpt>
      <trkpt lat="43.82364" lon="6.95659">
        <ele>1491.14</ele>
        <time>2021-01-06T10:22:03Z</time>
      </trkpt>
      <trkpt lat="43.82353" lon="6.95657">
        <ele>1492.1</ele>
        <time>2021-01-06T10:22:11Z</time>
      </trkpt>
      <trkpt lat="43.82347" lon="6.95656">
        <ele>1491.62</ele>
        <time>2021-01-06T10:22:15Z</time>
      </trkpt>
      <trkpt lat="43.8233" lon="6.95655">
        <ele>1491.62</ele>
        <time>2021-01-06T10:22:23Z</time>
      </trkpt>
      <trkpt lat="43.82316" lon="6.95655">
        <ele>1493.06</ele>
        <time>2021-01-06T10:22:33Z</time>
      </trkpt>
      <trkpt lat="43.82308" lon="6.95651">
        <ele>1493.55</ele>
        <time>2021-01-06T10:22:41Z</time>
      </trkpt>
      <trkpt lat="43.823" lon="6.95646">
        <ele>1494.99</ele>
        <time>2021-01-06T10:22:49Z</time>
      </trkpt>
      <trkpt lat="43.82293" lon="6.95636">
        <ele>1496.43</ele>
        <time>2021-01-06T10:22:59Z</time>
      </trkpt>
      <trkpt lat="43.82292" lon="6.95635">
        <ele>1496.43</ele>
        <time>2021-01-06T10:23:00Z</time>
      </trkpt>
      <trkpt lat="43.82291" lon="6.95633">
        <ele>1496.43</ele>
        <time>2021-01-06T10:23:02Z</time>
      </trkpt>
      <trkpt lat="43.82285" lon="6.95613">
        <ele>1497.87</ele>
        <time>2021-01-06T10:23:17Z</time>
      </trkpt>
      <trkpt lat="43.82283" lon="6.95599">
        <ele>1499.31</ele>
        <time>2021-01-06T10:23:27Z</time>
      </trkpt>
      <trkpt lat="43.82283" lon="6.95594">
        <ele>1499.79</ele>
        <time>2021-01-06T10:23:31Z</time>
      </trkpt>
      <trkpt lat="43.82282" lon="6.95577">
        <ele>1501.72</ele>
        <time>2021-01-06T10:23:41Z</time>
      </trkpt>
      <trkpt lat="43.82279" lon="6.95564">
        <ele>1502.68</ele>
        <time>2021-01-06T10:23:50Z</time>
      </trkpt>
      <trkpt lat="43.82276" lon="6.95545">
        <ele>1504.12</ele>
        <time>2021-01-06T10:23:59Z</time>
      </trkpt>
      <trkpt lat="43.82271" lon="6.95525">
        <ele>1504.6</ele>
        <time>2021-01-06T10:24:09Z</time>
      </trkpt>
      <trkpt lat="43.82269" lon="6.95518">
        <ele>1505.08</ele>
        <time>2021-01-06T10:24:13Z</time>
      </trkpt>
      <trkpt lat="43.82267" lon="6.95513">
        <ele>1505.08</ele>
        <time>2021-01-06T10:24:16Z</time>
      </trkpt>
      <trkpt lat="43.82264" lon="6.95503">
        <ele>1505.56</ele>
        <time>2021-01-06T10:24:21Z</time>
      </trkpt>
      <trkpt lat="43.82257" lon="6.95483">
        <ele>1506.04</ele>
        <time>2021-01-06T10:24:31Z</time>
      </trkpt>
      <trkpt lat="43.82256" lon="6.95481">
        <ele>1506.04</ele>
        <time>2021-01-06T10:24:32Z</time>
      </trkpt>
      <trkpt lat="43.82255" lon="6.95478">
        <ele>1506.04</ele>
        <time>2021-01-06T10:24:33Z</time>
      </trkpt>
      <trkpt lat="43.82254" lon="6.95476">
        <ele>1506.04</ele>
        <time>2021-01-06T10:24:34Z</time>
      </trkpt>
      <trkpt lat="43.82253" lon="6.95474">
        <ele>1506.04</ele>
        <time>2021-01-06T10:24:35Z</time>
      </trkpt>
      <trkpt lat="43.82252" lon="6.95472">
        <ele>1506.04</ele>
        <time>2021-01-06T10:24:36Z</time>
      </trkpt>
      <trkpt lat="43.82251" lon="6.95471">
        <ele>1506.52</ele>
        <time>2021-01-06T10:24:37Z</time>
      </trkpt>
      <trkpt lat="43.8225" lon="6.95469">
        <ele>1506.52</ele>
        <time>2021-01-06T10:24:38Z</time>
      </trkpt>
      <trkpt lat="43.82249" lon="6.95468">
        <ele>1506.52</ele>
        <time>2021-01-06T10:24:39Z</time>
      </trkpt>
      <trkpt lat="43.82248" lon="6.95467">
        <ele>1506.52</ele>
        <time>2021-01-06T10:24:40Z</time>
      </trkpt>
      <trkpt lat="43.82247" lon="6.95465">
        <ele>1506.52</ele>
        <time>2021-01-06T10:24:41Z</time>
      </trkpt>
      <trkpt lat="43.82246" lon="6.95463">
        <ele>1506.52</ele>
        <time>2021-01-06T10:24:42Z</time>
      </trkpt>
      <trkpt lat="43.82245" lon="6.95462">
        <ele>1506.52</ele>
        <time>2021-01-06T10:24:43Z</time>
      </trkpt>
      <trkpt lat="43.82244" lon="6.9546">
        <ele>1506.52</ele>
        <time>2021-01-06T10:24:44Z</time>
      </trkpt>
      <trkpt lat="43.82243" lon="6.95459">
        <ele>1506.52</ele>
        <time>2021-01-06T10:24:45Z</time>
      </trkpt>
      <trkpt lat="43.82242" lon="6.95458">
        <ele>1506.52</ele>
        <time>2021-01-06T10:24:46Z</time>
      </trkpt>
      <trkpt lat="43.82241" lon="6.95456">
        <ele>1506.52</ele>
        <time>2021-01-06T10:24:47Z</time>
      </trkpt>
      <trkpt lat="43.8224" lon="6.95455">
        <ele>1507</ele>
        <time>2021-01-06T10:24:48Z</time>
      </trkpt>
      <trkpt lat="43.82239" lon="6.95453">
        <ele>1507</ele>
        <time>2021-01-06T10:24:49Z</time>
      </trkpt>
      <trkpt lat="43.82238" lon="6.95451">
        <ele>1507</ele>
        <time>2021-01-06T10:24:50Z</time>
      </trkpt>
      <trkpt lat="43.82237" lon="6.95449">
        <ele>1507</ele>
        <time>2021-01-06T10:24:51Z</time>
      </trkpt>
      <trkpt lat="43.82237" lon="6.95448">
        <ele>1507</ele>
        <time>2021-01-06T10:24:52Z</time>
      </trkpt>
      <trkpt lat="43.82235" lon="6.95446">
        <ele>1507</ele>
        <time>2021-01-06T10:24:53Z</time>
      </trkpt>
      <trkpt lat="43.82235" lon="6.95445">
        <ele>1507</ele>
        <time>2021-01-06T10:24:54Z</time>
      </trkpt>
      <trkpt lat="43.82234" lon="6.95443">
        <ele>1507.48</ele>
        <time>2021-01-06T10:24:55Z</time>
      </trkpt>
      <trkpt lat="43.82233" lon="6.95442">
        <ele>1507.48</ele>
        <time>2021-01-06T10:24:56Z</time>
      </trkpt>
      <trkpt lat="43.82232" lon="6.95441">
        <ele>1507.48</ele>
        <time>2021-01-06T10:24:57Z</time>
      </trkpt>
      <trkpt lat="43.82231" lon="6.9544">
        <ele>1507.48</ele>
        <time>2021-01-06T10:24:58Z</time>
      </trkpt>
      <trkpt lat="43.8223" lon="6.95439">
        <ele>1507.97</ele>
        <time>2021-01-06T10:24:59Z</time>
      </trkpt>
      <trkpt lat="43.82229" lon="6.95438">
        <ele>1507.97</ele>
        <time>2021-01-06T10:25:00Z</time>
      </trkpt>
      <trkpt lat="43.82229" lon="6.95437">
        <ele>1507.97</ele>
        <time>2021-01-06T10:25:01Z</time>
      </trkpt>
      <trkpt lat="43.82228" lon="6.95436">
        <ele>1507.97</ele>
        <time>2021-01-06T10:25:02Z</time>
      </trkpt>
      <trkpt lat="43.82227" lon="6.95435">
        <ele>1508.45</ele>
        <time>2021-01-06T10:25:03Z</time>
      </trkpt>
      <trkpt lat="43.82226" lon="6.95434">
        <ele>1508.45</ele>
        <time>2021-01-06T10:25:04Z</time>
      </trkpt>
      <trkpt lat="43.82226" lon="6.95433">
        <ele>1508.45</ele>
        <time>2021-01-06T10:25:05Z</time>
      </trkpt>
      <trkpt lat="43.82225" lon="6.95432">
        <ele>1508.45</ele>
        <time>2021-01-06T10:25:06Z</time>
      </trkpt>
      <trkpt lat="43.82224" lon="6.95431">
        <ele>1508.45</ele>
        <time>2021-01-06T10:25:07Z</time>
      </trkpt>
      <trkpt lat="43.82221" lon="6.95428">
        <ele>1508.93</ele>
        <time>2021-01-06T10:25:10Z</time>
      </trkpt>
      <trkpt lat="43.8222" lon="6.95427">
        <ele>1508.93</ele>
        <time>2021-01-06T10:25:11Z</time>
      </trkpt>
      <trkpt lat="43.82216" lon="6.95418">
        <ele>1509.89</ele>
        <time>2021-01-06T10:25:18Z</time>
      </trkpt>
      <trkpt lat="43.82216" lon="6.95416">
        <ele>1509.89</ele>
        <time>2021-01-06T10:25:19Z</time>
      </trkpt>
      <trkpt lat="43.82214" lon="6.95413">
        <ele>1511.33</ele>
        <time>2021-01-06T10:25:22Z</time>
      </trkpt>
      <trkpt lat="43.82209" lon="6.95404">
        <ele>1511.81</ele>
        <time>2021-01-06T10:25:29Z</time>
      </trkpt>
      <trkpt lat="43.82209" lon="6.95403">
        <ele>1511.81</ele>
        <time>2021-01-06T10:25:30Z</time>
      </trkpt>
      <trkpt lat="43.82207" lon="6.954">
        <ele>1512.29</ele>
        <time>2021-01-06T10:25:33Z</time>
      </trkpt>
      <trkpt lat="43.82206" lon="6.95399">
        <ele>1512.29</ele>
        <time>2021-01-06T10:25:34Z</time>
      </trkpt>
      <trkpt lat="43.82206" lon="6.95397">
        <ele>1512.29</ele>
        <time>2021-01-06T10:25:35Z</time>
      </trkpt>
      <trkpt lat="43.82205" lon="6.95396">
        <ele>1512.29</ele>
        <time>2021-01-06T10:25:36Z</time>
      </trkpt>
      <trkpt lat="43.82204" lon="6.95395">
        <ele>1513.25</ele>
        <time>2021-01-06T10:25:37Z</time>
      </trkpt>
      <trkpt lat="43.82204" lon="6.95393">
        <ele>1513.25</ele>
        <time>2021-01-06T10:25:38Z</time>
      </trkpt>
      <trkpt lat="43.82203" lon="6.95392">
        <ele>1513.25</ele>
        <time>2021-01-06T10:25:39Z</time>
      </trkpt>
      <trkpt lat="43.82203" lon="6.9539">
        <ele>1513.25</ele>
        <time>2021-01-06T10:25:40Z</time>
      </trkpt>
      <trkpt lat="43.82202" lon="6.95389">
        <ele>1513.25</ele>
        <time>2021-01-06T10:25:41Z</time>
      </trkpt>
      <trkpt lat="43.82201" lon="6.95388">
        <ele>1513.25</ele>
        <time>2021-01-06T10:25:42Z</time>
      </trkpt>
      <trkpt lat="43.82201" lon="6.95386">
        <ele>1513.73</ele>
        <time>2021-01-06T10:25:43Z</time>
      </trkpt>
      <trkpt lat="43.822" lon="6.95385">
        <ele>1513.73</ele>
        <time>2021-01-06T10:25:44Z</time>
      </trkpt>
      <trkpt lat="43.822" lon="6.95384">
        <ele>1514.21</ele>
        <time>2021-01-06T10:25:45Z</time>
      </trkpt>
      <trkpt lat="43.82196" lon="6.95376">
        <ele>1514.69</ele>
        <time>2021-01-06T10:25:50Z</time>
      </trkpt>
      <trkpt lat="43.82195" lon="6.95375">
        <ele>1514.69</ele>
        <time>2021-01-06T10:25:51Z</time>
      </trkpt>
      <trkpt lat="43.82195" lon="6.95373">
        <ele>1514.69</ele>
        <time>2021-01-06T10:25:52Z</time>
      </trkpt>
      <trkpt lat="43.82194" lon="6.95371">
        <ele>1514.69</ele>
        <time>2021-01-06T10:25:53Z</time>
      </trkpt>
      <trkpt lat="43.82193" lon="6.9537">
        <ele>1515.18</ele>
        <time>2021-01-06T10:25:54Z</time>
      </trkpt>
      <trkpt lat="43.82193" lon="6.95368">
        <ele>1515.18</ele>
        <time>2021-01-06T10:25:55Z</time>
      </trkpt>
      <trkpt lat="43.82192" lon="6.95367">
        <ele>1515.18</ele>
        <time>2021-01-06T10:25:56Z</time>
      </trkpt>
      <trkpt lat="43.82191" lon="6.95365">
        <ele>1516.14</ele>
        <time>2021-01-06T10:25:57Z</time>
      </trkpt>
      <trkpt lat="43.8219" lon="6.95363">
        <ele>1516.14</ele>
        <time>2021-01-06T10:25:58Z</time>
      </trkpt>
      <trkpt lat="43.82189" lon="6.95362">
        <ele>1516.14</ele>
        <time>2021-01-06T10:25:59Z</time>
      </trkpt>
      <trkpt lat="43.82188" lon="6.9536">
        <ele>1516.62</ele>
        <time>2021-01-06T10:26:00Z</time>
      </trkpt>
      <trkpt lat="43.82188" lon="6.95358">
        <ele>1516.62</ele>
        <time>2021-01-06T10:26:01Z</time>
      </trkpt>
      <trkpt lat="43.82187" lon="6.95356">
        <ele>1516.62</ele>
        <time>2021-01-06T10:26:02Z</time>
      </trkpt>
      <trkpt lat="43.82186" lon="6.95355">
        <ele>1516.62</ele>
        <time>2021-01-06T10:26:03Z</time>
      </trkpt>
      <trkpt lat="43.82186" lon="6.95353">
        <ele>1516.62</ele>
        <time>2021-01-06T10:26:04Z</time>
      </trkpt>
      <trkpt lat="43.82185" lon="6.95351">
        <ele>1516.62</ele>
        <time>2021-01-06T10:26:05Z</time>
      </trkpt>
      <trkpt lat="43.82184" lon="6.95349">
        <ele>1517.1</ele>
        <time>2021-01-06T10:26:06Z</time>
      </trkpt>
      <trkpt lat="43.82183" lon="6.95347">
        <ele>1517.1</ele>
        <time>2021-01-06T10:26:07Z</time>
      </trkpt>
      <trkpt lat="43.82182" lon="6.95345">
        <ele>1517.1</ele>
        <time>2021-01-06T10:26:08Z</time>
      </trkpt>
      <trkpt lat="43.8218" lon="6.95343">
        <ele>1517.1</ele>
        <time>2021-01-06T10:26:09Z</time>
      </trkpt>
      <trkpt lat="43.82179" lon="6.95339">
        <ele>1517.1</ele>
        <time>2021-01-06T10:26:11Z</time>
      </trkpt>
      <trkpt lat="43.82178" lon="6.95338">
        <ele>1518.06</ele>
        <time>2021-01-06T10:26:12Z</time>
      </trkpt>
      <trkpt lat="43.82172" lon="6.9531">
        <ele>1518.06</ele>
        <time>2021-01-06T10:26:24Z</time>
      </trkpt>
      <trkpt lat="43.82173" lon="6.95281">
        <ele>1518.06</ele>
        <time>2021-01-06T10:26:37Z</time>
      </trkpt>
      <trkpt lat="43.82174" lon="6.95259">
        <ele>1516.14</ele>
        <time>2021-01-06T10:26:46Z</time>
      </trkpt>
      <trkpt lat="43.82185" lon="6.95214">
        <ele>1514.21</ele>
        <time>2021-01-06T10:26:57Z</time>
      </trkpt>
      <trkpt lat="43.82193" lon="6.95163">
        <ele>1510.85</ele>
        <time>2021-01-06T10:27:07Z</time>
      </trkpt>
      <trkpt lat="43.82195" lon="6.95156">
        <ele>1510.85</ele>
        <time>2021-01-06T10:27:08Z</time>
      </trkpt>
      <trkpt lat="43.822" lon="6.95137">
        <ele>1508.93</ele>
        <time>2021-01-06T10:27:11Z</time>
      </trkpt>
      <trkpt lat="43.82232" lon="6.95064">
        <ele>1507</ele>
        <time>2021-01-06T10:27:27Z</time>
      </trkpt>
      <trkpt lat="43.82245" lon="6.95026">
        <ele>1504.6</ele>
        <time>2021-01-06T10:27:35Z</time>
      </trkpt>
      <trkpt lat="43.82258" lon="6.94956">
        <ele>1502.68</ele>
        <time>2021-01-06T10:27:48Z</time>
      </trkpt>
      <trkpt lat="43.82259" lon="6.9495">
        <ele>1502.2</ele>
        <time>2021-01-06T10:27:49Z</time>
      </trkpt>
      <trkpt lat="43.82258" lon="6.94944">
        <ele>1502.2</ele>
        <time>2021-01-06T10:27:50Z</time>
      </trkpt>
      <trkpt lat="43.82258" lon="6.94939">
        <ele>1502.2</ele>
        <time>2021-01-06T10:27:51Z</time>
      </trkpt>
      <trkpt lat="43.82257" lon="6.94933">
        <ele>1501.72</ele>
        <time>2021-01-06T10:27:52Z</time>
      </trkpt>
      <trkpt lat="43.82252" lon="6.94893">
        <ele>1499.79</ele>
        <time>2021-01-06T10:27:59Z</time>
      </trkpt>
      <trkpt lat="43.82253" lon="6.94887">
        <ele>1499.79</ele>
        <time>2021-01-06T10:28:00Z</time>
      </trkpt>
      <trkpt lat="43.82254" lon="6.94881">
        <ele>1499.79</ele>
        <time>2021-01-06T10:28:01Z</time>
      </trkpt>
      <trkpt lat="43.82255" lon="6.94875">
        <ele>1499.79</ele>
        <time>2021-01-06T10:28:02Z</time>
      </trkpt>
      <trkpt lat="43.82257" lon="6.9487">
        <ele>1499.79</ele>
        <time>2021-01-06T10:28:03Z</time>
      </trkpt>
      <trkpt lat="43.82259" lon="6.94866">
        <ele>1498.83</ele>
        <time>2021-01-06T10:28:04Z</time>
      </trkpt>
      <trkpt lat="43.82261" lon="6.94861">
        <ele>1498.83</ele>
        <time>2021-01-06T10:28:05Z</time>
      </trkpt>
      <trkpt lat="43.82274" lon="6.94828">
        <ele>1495.95</ele>
        <time>2021-01-06T10:28:10Z</time>
      </trkpt>
      <trkpt lat="43.82277" lon="6.94813">
        <ele>1495.95</ele>
        <time>2021-01-06T10:28:12Z</time>
      </trkpt>
      <trkpt lat="43.82277" lon="6.94806">
        <ele>1495.47</ele>
        <time>2021-01-06T10:28:13Z</time>
      </trkpt>
      <trkpt lat="43.82276" lon="6.94798">
        <ele>1495.47</ele>
        <time>2021-01-06T10:28:14Z</time>
      </trkpt>
      <trkpt lat="43.82274" lon="6.94791">
        <ele>1494.03</ele>
        <time>2021-01-06T10:28:15Z</time>
      </trkpt>
      <trkpt lat="43.82271" lon="6.94784">
        <ele>1492.58</ele>
        <time>2021-01-06T10:28:16Z</time>
      </trkpt>
      <trkpt lat="43.82267" lon="6.94776">
        <ele>1491.14</ele>
        <time>2021-01-06T10:28:17Z</time>
      </trkpt>
      <trkpt lat="43.82262" lon="6.94769">
        <ele>1490.66</ele>
        <time>2021-01-06T10:28:18Z</time>
      </trkpt>
      <trkpt lat="43.82257" lon="6.94762">
        <ele>1490.66</ele>
        <time>2021-01-06T10:28:19Z</time>
      </trkpt>
      <trkpt lat="43.82252" lon="6.94756">
        <ele>1490.66</ele>
        <time>2021-01-06T10:28:20Z</time>
      </trkpt>
      <trkpt lat="43.82243" lon="6.94745">
        <ele>1490.66</ele>
        <time>2021-01-06T10:28:22Z</time>
      </trkpt>
      <trkpt lat="43.8222" lon="6.9471">
        <ele>1490.18</ele>
        <time>2021-01-06T10:28:30Z</time>
      </trkpt>
      <trkpt lat="43.82218" lon="6.94706">
        <ele>1490.18</ele>
        <time>2021-01-06T10:28:31Z</time>
      </trkpt>
      <trkpt lat="43.82218" lon="6.94702">
        <ele>1490.18</ele>
        <time>2021-01-06T10:28:32Z</time>
      </trkpt>
      <trkpt lat="43.82217" lon="6.94698">
        <ele>1491.62</ele>
        <time>2021-01-06T10:28:33Z</time>
      </trkpt>
      <trkpt lat="43.82218" lon="6.94694">
        <ele>1491.62</ele>
        <time>2021-01-06T10:28:34Z</time>
      </trkpt>
      <trkpt lat="43.82219" lon="6.9469">
        <ele>1491.62</ele>
        <time>2021-01-06T10:28:35Z</time>
      </trkpt>
      <trkpt lat="43.82232" lon="6.94674">
        <ele>1492.1</ele>
        <time>2021-01-06T10:28:41Z</time>
      </trkpt>
      <trkpt lat="43.8224" lon="6.94671">
        <ele>1492.1</ele>
        <time>2021-01-06T10:28:43Z</time>
      </trkpt>
      <trkpt lat="43.82244" lon="6.94671">
        <ele>1491.14</ele>
        <time>2021-01-06T10:28:44Z</time>
      </trkpt>
      <trkpt lat="43.82248" lon="6.9467">
        <ele>1491.14</ele>
        <time>2021-01-06T10:28:45Z</time>
      </trkpt>
      <trkpt lat="43.82252" lon="6.9467">
        <ele>1491.14</ele>
        <time>2021-01-06T10:28:46Z</time>
      </trkpt>
      <trkpt lat="43.82256" lon="6.94668">
        <ele>1491.14</ele>
        <time>2021-01-06T10:28:47Z</time>
      </trkpt>
      <trkpt lat="43.82259" lon="6.94667">
        <ele>1491.14</ele>
        <time>2021-01-06T10:28:48Z</time>
      </trkpt>
      <trkpt lat="43.82277" lon="6.94649">
        <ele>1489.22</ele>
        <time>2021-01-06T10:28:54Z</time>
      </trkpt>
      <trkpt lat="43.82283" lon="6.94641">
        <ele>1489.22</ele>
        <time>2021-01-06T10:28:56Z</time>
      </trkpt>
      <trkpt lat="43.82285" lon="6.94636">
        <ele>1489.22</ele>
        <time>2021-01-06T10:28:57Z</time>
      </trkpt>
      <trkpt lat="43.82287" lon="6.94631">
        <ele>1488.74</ele>
        <time>2021-01-06T10:28:58Z</time>
      </trkpt>
      <trkpt lat="43.82289" lon="6.94626">
        <ele>1488.74</ele>
        <time>2021-01-06T10:28:59Z</time>
      </trkpt>
      <trkpt lat="43.8229" lon="6.9462">
        <ele>1488.74</ele>
        <time>2021-01-06T10:29:00Z</time>
      </trkpt>
      <trkpt lat="43.82291" lon="6.94614">
        <ele>1488.74</ele>
        <time>2021-01-06T10:29:01Z</time>
      </trkpt>
      <trkpt lat="43.82289" lon="6.94572">
        <ele>1487.3</ele>
        <time>2021-01-06T10:29:09Z</time>
      </trkpt>
      <trkpt lat="43.82286" lon="6.94545">
        <ele>1485.37</ele>
        <time>2021-01-06T10:29:13Z</time>
      </trkpt>
      <trkpt lat="43.82287" lon="6.94538">
        <ele>1484.41</ele>
        <time>2021-01-06T10:29:14Z</time>
      </trkpt>
      <trkpt lat="43.82288" lon="6.94533">
        <ele>1484.41</ele>
        <time>2021-01-06T10:29:15Z</time>
      </trkpt>
      <trkpt lat="43.8229" lon="6.94523">
        <ele>1486.34</ele>
        <time>2021-01-06T10:29:17Z</time>
      </trkpt>
      <trkpt lat="43.82298" lon="6.94482">
        <ele>1485.85</ele>
        <time>2021-01-06T10:29:26Z</time>
      </trkpt>
      <trkpt lat="43.82305" lon="6.9442">
        <ele>1482.49</ele>
        <time>2021-01-06T10:29:35Z</time>
      </trkpt>
      <trkpt lat="43.82305" lon="6.94414">
        <ele>1482.49</ele>
        <time>2021-01-06T10:29:36Z</time>
      </trkpt>
      <trkpt lat="43.82302" lon="6.94392">
        <ele>1481.53</ele>
        <time>2021-01-06T10:29:40Z</time>
      </trkpt>
      <trkpt lat="43.82301" lon="6.94385">
        <ele>1481.53</ele>
        <time>2021-01-06T10:29:41Z</time>
      </trkpt>
      <trkpt lat="43.823" lon="6.94379">
        <ele>1481.05</ele>
        <time>2021-01-06T10:29:42Z</time>
      </trkpt>
      <trkpt lat="43.823" lon="6.94363">
        <ele>1480.09</ele>
        <time>2021-01-06T10:29:44Z</time>
      </trkpt>
      <trkpt lat="43.82301" lon="6.94349">
        <ele>1479.13</ele>
        <time>2021-01-06T10:29:46Z</time>
      </trkpt>
      <trkpt lat="43.82303" lon="6.94343">
        <ele>1479.13</ele>
        <time>2021-01-06T10:29:47Z</time>
      </trkpt>
      <trkpt lat="43.82308" lon="6.94327">
        <ele>1480.57</ele>
        <time>2021-01-06T10:29:50Z</time>
      </trkpt>
      <trkpt lat="43.82308" lon="6.94316">
        <ele>1480.57</ele>
        <time>2021-01-06T10:29:52Z</time>
      </trkpt>
      <trkpt lat="43.82306" lon="6.94304">
        <ele>1479.13</ele>
        <time>2021-01-06T10:29:54Z</time>
      </trkpt>
      <trkpt lat="43.82301" lon="6.9429">
        <ele>1478.65</ele>
        <time>2021-01-06T10:29:56Z</time>
      </trkpt>
      <trkpt lat="43.82296" lon="6.94276">
        <ele>1477.2</ele>
        <time>2021-01-06T10:29:58Z</time>
      </trkpt>
      <trkpt lat="43.82289" lon="6.94254">
        <ele>1475.28</ele>
        <time>2021-01-06T10:30:01Z</time>
      </trkpt>
      <trkpt lat="43.82283" lon="6.94234">
        <ele>1474.32</ele>
        <time>2021-01-06T10:30:04Z</time>
      </trkpt>
      <trkpt lat="43.82273" lon="6.94203">
        <ele>1473.36</ele>
        <time>2021-01-06T10:30:09Z</time>
      </trkpt>
      <trkpt lat="43.82264" lon="6.94162">
        <ele>1471.44</ele>
        <time>2021-01-06T10:30:15Z</time>
      </trkpt>
      <trkpt lat="43.82263" lon="6.94149">
        <ele>1470.95</ele>
        <time>2021-01-06T10:30:17Z</time>
      </trkpt>
      <trkpt lat="43.82274" lon="6.94093">
        <ele>1469.99</ele>
        <time>2021-01-06T10:30:27Z</time>
      </trkpt>
      <trkpt lat="43.82275" lon="6.94086">
        <ele>1469.99</ele>
        <time>2021-01-06T10:30:28Z</time>
      </trkpt>
      <trkpt lat="43.82275" lon="6.94073">
        <ele>1469.03</ele>
        <time>2021-01-06T10:30:30Z</time>
      </trkpt>
      <trkpt lat="43.82274" lon="6.94066">
        <ele>1468.07</ele>
        <time>2021-01-06T10:30:31Z</time>
      </trkpt>
      <trkpt lat="43.82272" lon="6.94059">
        <ele>1468.07</ele>
        <time>2021-01-06T10:30:32Z</time>
      </trkpt>
      <trkpt lat="43.82258" lon="6.94022">
        <ele>1465.19</ele>
        <time>2021-01-06T10:30:38Z</time>
      </trkpt>
      <trkpt lat="43.82257" lon="6.94015">
        <ele>1463.74</ele>
        <time>2021-01-06T10:30:39Z</time>
      </trkpt>
      <trkpt lat="43.82257" lon="6.94006">
        <ele>1462.78</ele>
        <time>2021-01-06T10:30:40Z</time>
      </trkpt>
      <trkpt lat="43.82257" lon="6.93998">
        <ele>1462.3</ele>
        <time>2021-01-06T10:30:41Z</time>
      </trkpt>
      <trkpt lat="43.82259" lon="6.93991">
        <ele>1461.34</ele>
        <time>2021-01-06T10:30:42Z</time>
      </trkpt>
      <trkpt lat="43.8226" lon="6.93988">
        <ele>1461.34</ele>
        <time>2021-01-06T10:30:43Z</time>
      </trkpt>
      <trkpt lat="43.82262" lon="6.93988">
        <ele>1461.34</ele>
        <time>2021-01-06T10:30:44Z</time>
      </trkpt>
      <trkpt lat="43.82264" lon="6.93988">
        <ele>1461.34</ele>
        <time>2021-01-06T10:30:45Z</time>
      </trkpt>
      <trkpt lat="43.82268" lon="6.93991">
        <ele>1461.34</ele>
        <time>2021-01-06T10:30:46Z</time>
      </trkpt>
      <trkpt lat="43.82272" lon="6.93995">
        <ele>1461.34</ele>
        <time>2021-01-06T10:30:47Z</time>
      </trkpt>
      <trkpt lat="43.82292" lon="6.94027">
        <ele>1460.86</ele>
        <time>2021-01-06T10:30:53Z</time>
      </trkpt>
      <trkpt lat="43.82296" lon="6.94031">
        <ele>1460.86</ele>
        <time>2021-01-06T10:30:54Z</time>
      </trkpt>
      <trkpt lat="43.823" lon="6.94034">
        <ele>1460.38</ele>
        <time>2021-01-06T10:30:55Z</time>
      </trkpt>
      <trkpt lat="43.82328" lon="6.94049">
        <ele>1459.42</ele>
        <time>2021-01-06T10:31:02Z</time>
      </trkpt>
      <trkpt lat="43.82338" lon="6.94057">
        <ele>1458.94</ele>
        <time>2021-01-06T10:31:05Z</time>
      </trkpt>
      <trkpt lat="43.82341" lon="6.94062">
        <ele>1458.94</ele>
        <time>2021-01-06T10:31:06Z</time>
      </trkpt>
      <trkpt lat="43.82342" lon="6.94067">
        <ele>1458.94</ele>
        <time>2021-01-06T10:31:07Z</time>
      </trkpt>
      <trkpt lat="43.82342" lon="6.94072">
        <ele>1458.94</ele>
        <time>2021-01-06T10:31:08Z</time>
      </trkpt>
      <trkpt lat="43.82341" lon="6.94077">
        <ele>1458.94</ele>
        <time>2021-01-06T10:31:09Z</time>
      </trkpt>
      <trkpt lat="43.82339" lon="6.94082">
        <ele>1458.46</ele>
        <time>2021-01-06T10:31:10Z</time>
      </trkpt>
      <trkpt lat="43.82336" lon="6.94086">
        <ele>1457.98</ele>
        <time>2021-01-06T10:31:11Z</time>
      </trkpt>
      <trkpt lat="43.82333" lon="6.94089">
        <ele>1457.98</ele>
        <time>2021-01-06T10:31:12Z</time>
      </trkpt>
      <trkpt lat="43.82326" lon="6.94097">
        <ele>1457.02</ele>
        <time>2021-01-06T10:31:14Z</time>
      </trkpt>
      <trkpt lat="43.82324" lon="6.94102">
        <ele>1457.02</ele>
        <time>2021-01-06T10:31:15Z</time>
      </trkpt>
      <trkpt lat="43.82323" lon="6.94107">
        <ele>1456.05</ele>
        <time>2021-01-06T10:31:16Z</time>
      </trkpt>
      <trkpt lat="43.82324" lon="6.94113">
        <ele>1456.05</ele>
        <time>2021-01-06T10:31:17Z</time>
      </trkpt>
      <trkpt lat="43.82326" lon="6.94119">
        <ele>1456.05</ele>
        <time>2021-01-06T10:31:18Z</time>
      </trkpt>
      <trkpt lat="43.82328" lon="6.94124">
        <ele>1456.05</ele>
        <time>2021-01-06T10:31:19Z</time>
      </trkpt>
      <trkpt lat="43.82331" lon="6.9413">
        <ele>1456.05</ele>
        <time>2021-01-06T10:31:20Z</time>
      </trkpt>
      <trkpt lat="43.82333" lon="6.94135">
        <ele>1456.05</ele>
        <time>2021-01-06T10:31:21Z</time>
      </trkpt>
      <trkpt lat="43.82335" lon="6.94141">
        <ele>1455.57</ele>
        <time>2021-01-06T10:31:22Z</time>
      </trkpt>
      <trkpt lat="43.82338" lon="6.94147">
        <ele>1455.57</ele>
        <time>2021-01-06T10:31:23Z</time>
      </trkpt>
      <trkpt lat="43.8234" lon="6.94153">
        <ele>1455.09</ele>
        <time>2021-01-06T10:31:24Z</time>
      </trkpt>
      <trkpt lat="43.82342" lon="6.94159">
        <ele>1455.09</ele>
        <time>2021-01-06T10:31:25Z</time>
      </trkpt>
      <trkpt lat="43.82345" lon="6.94164">
        <ele>1455.09</ele>
        <time>2021-01-06T10:31:26Z</time>
      </trkpt>
      <trkpt lat="43.82363" lon="6.94188">
        <ele>1454.13</ele>
        <time>2021-01-06T10:31:33Z</time>
      </trkpt>
      <trkpt lat="43.82366" lon="6.94188">
        <ele>1454.13</ele>
        <time>2021-01-06T10:31:34Z</time>
      </trkpt>
      <trkpt lat="43.82369" lon="6.94186">
        <ele>1454.13</ele>
        <time>2021-01-06T10:31:35Z</time>
      </trkpt>
      <trkpt lat="43.82373" lon="6.94184">
        <ele>1454.13</ele>
        <time>2021-01-06T10:31:36Z</time>
      </trkpt>
      <trkpt lat="43.82376" lon="6.94182">
        <ele>1454.13</ele>
        <time>2021-01-06T10:31:37Z</time>
      </trkpt>
      <trkpt lat="43.8238" lon="6.9418">
        <ele>1454.13</ele>
        <time>2021-01-06T10:31:38Z</time>
      </trkpt>
      <trkpt lat="43.82384" lon="6.94178">
        <ele>1454.13</ele>
        <time>2021-01-06T10:31:39Z</time>
      </trkpt>
      <trkpt lat="43.82388" lon="6.94177">
        <ele>1453.65</ele>
        <time>2021-01-06T10:31:40Z</time>
      </trkpt>
      <trkpt lat="43.82392" lon="6.94176">
        <ele>1453.17</ele>
        <time>2021-01-06T10:31:41Z</time>
      </trkpt>
      <trkpt lat="43.82397" lon="6.94175">
        <ele>1452.69</ele>
        <time>2021-01-06T10:31:42Z</time>
      </trkpt>
      <trkpt lat="43.82402" lon="6.94175">
        <ele>1451.73</ele>
        <time>2021-01-06T10:31:43Z</time>
      </trkpt>
      <trkpt lat="43.82407" lon="6.94176">
        <ele>1451.73</ele>
        <time>2021-01-06T10:31:44Z</time>
      </trkpt>
      <trkpt lat="43.82412" lon="6.94176">
        <ele>1450.77</ele>
        <time>2021-01-06T10:31:45Z</time>
      </trkpt>
      <trkpt lat="43.82435" lon="6.94178">
        <ele>1448.84</ele>
        <time>2021-01-06T10:31:49Z</time>
      </trkpt>
      <trkpt lat="43.82489" lon="6.94177">
        <ele>1445.48</ele>
        <time>2021-01-06T10:31:58Z</time>
      </trkpt>
      <trkpt lat="43.82532" lon="6.94173">
        <ele>1442.6</ele>
        <time>2021-01-06T10:32:06Z</time>
      </trkpt>
      <trkpt lat="43.82542" lon="6.94176">
        <ele>1442.6</ele>
        <time>2021-01-06T10:32:08Z</time>
      </trkpt>
      <trkpt lat="43.8255" lon="6.94178">
        <ele>1442.6</ele>
        <time>2021-01-06T10:32:10Z</time>
      </trkpt>
      <trkpt lat="43.82554" lon="6.94176">
        <ele>1442.11</ele>
        <time>2021-01-06T10:32:11Z</time>
      </trkpt>
      <trkpt lat="43.82556" lon="6.94172">
        <ele>1442.11</ele>
        <time>2021-01-06T10:32:12Z</time>
      </trkpt>
      <trkpt lat="43.82556" lon="6.94166">
        <ele>1442.11</ele>
        <time>2021-01-06T10:32:13Z</time>
      </trkpt>
      <trkpt lat="43.82553" lon="6.94161">
        <ele>1441.63</ele>
        <time>2021-01-06T10:32:14Z</time>
      </trkpt>
      <trkpt lat="43.8255" lon="6.94157">
        <ele>1440.67</ele>
        <time>2021-01-06T10:32:15Z</time>
      </trkpt>
      <trkpt lat="43.82545" lon="6.94153">
        <ele>1439.23</ele>
        <time>2021-01-06T10:32:16Z</time>
      </trkpt>
      <trkpt lat="43.82539" lon="6.94149">
        <ele>1437.79</ele>
        <time>2021-01-06T10:32:17Z</time>
      </trkpt>
      <trkpt lat="43.82533" lon="6.94143">
        <ele>1436.83</ele>
        <time>2021-01-06T10:32:18Z</time>
      </trkpt>
      <trkpt lat="43.82528" lon="6.94137">
        <ele>1436.35</ele>
        <time>2021-01-06T10:32:19Z</time>
      </trkpt>
      <trkpt lat="43.82522" lon="6.94132">
        <ele>1435.39</ele>
        <time>2021-01-06T10:32:20Z</time>
      </trkpt>
      <trkpt lat="43.82515" lon="6.94126">
        <ele>1435.39</ele>
        <time>2021-01-06T10:32:21Z</time>
      </trkpt>
      <trkpt lat="43.82509" lon="6.94123">
        <ele>1433.94</ele>
        <time>2021-01-06T10:32:22Z</time>
      </trkpt>
      <trkpt lat="43.82503" lon="6.9412">
        <ele>1433.94</ele>
        <time>2021-01-06T10:32:23Z</time>
      </trkpt>
      <trkpt lat="43.82481" lon="6.94112">
        <ele>1435.39</ele>
        <time>2021-01-06T10:32:28Z</time>
      </trkpt>
      <trkpt lat="43.82453" lon="6.941">
        <ele>1437.79</ele>
        <time>2021-01-06T10:32:39Z</time>
      </trkpt>
      <trkpt lat="43.82445" lon="6.94094">
        <ele>1438.27</ele>
        <time>2021-01-06T10:32:45Z</time>
      </trkpt>
      <trkpt lat="43.82443" lon="6.94092">
        <ele>1438.75</ele>
        <time>2021-01-06T10:32:46Z</time>
      </trkpt>
      <trkpt lat="43.82423" lon="6.94079">
        <ele>1438.75</ele>
        <time>2021-01-06T10:32:54Z</time>
      </trkpt>
      <trkpt lat="43.82422" lon="6.94078">
        <ele>1439.71</ele>
        <time>2021-01-06T10:32:55Z</time>
      </trkpt>
      <trkpt lat="43.82421" lon="6.94077">
        <ele>1439.71</ele>
        <time>2021-01-06T10:32:56Z</time>
      </trkpt>
      <trkpt lat="43.8242" lon="6.94076">
        <ele>1440.19</ele>
        <time>2021-01-06T10:32:57Z</time>
      </trkpt>
      <trkpt lat="43.82419" lon="6.94076">
        <ele>1440.19</ele>
        <time>2021-01-06T10:32:58Z</time>
      </trkpt>
      <trkpt lat="43.82418" lon="6.94075">
        <ele>1441.15</ele>
        <time>2021-01-06T10:32:59Z</time>
      </trkpt>
      <trkpt lat="43.82417" lon="6.94074">
        <ele>1441.15</ele>
        <time>2021-01-06T10:33:00Z</time>
      </trkpt>
      <trkpt lat="43.82415" lon="6.94074">
        <ele>1441.15</ele>
        <time>2021-01-06T10:33:01Z</time>
      </trkpt>
      <trkpt lat="43.82414" lon="6.94073">
        <ele>1441.63</ele>
        <time>2021-01-06T10:33:02Z</time>
      </trkpt>
      <trkpt lat="43.82413" lon="6.94072">
        <ele>1441.63</ele>
        <time>2021-01-06T10:33:03Z</time>
      </trkpt>
      <trkpt lat="43.82409" lon="6.94068">
        <ele>1443.08</ele>
        <time>2021-01-06T10:33:07Z</time>
      </trkpt>
      <trkpt lat="43.82404" lon="6.94064">
        <ele>1444.04</ele>
        <time>2021-01-06T10:33:13Z</time>
      </trkpt>
      <trkpt lat="43.82404" lon="6.94063">
        <ele>1444.04</ele>
        <time>2021-01-06T10:33:14Z</time>
      </trkpt>
      <trkpt lat="43.82398" lon="6.94056">
        <ele>1445.96</ele>
        <time>2021-01-06T10:33:22Z</time>
      </trkpt>
      <trkpt lat="43.82396" lon="6.94053">
        <ele>1446.44</ele>
        <time>2021-01-06T10:33:25Z</time>
      </trkpt>
      <trkpt lat="43.82395" lon="6.94052">
        <ele>1446.44</ele>
        <time>2021-01-06T10:33:26Z</time>
      </trkpt>
      <trkpt lat="43.82394" lon="6.9405">
        <ele>1446.44</ele>
        <time>2021-01-06T10:33:27Z</time>
      </trkpt>
      <trkpt lat="43.82393" lon="6.94049">
        <ele>1446.44</ele>
        <time>2021-01-06T10:33:28Z</time>
      </trkpt>
      <trkpt lat="43.82392" lon="6.94048">
        <ele>1446.92</ele>
        <time>2021-01-06T10:33:29Z</time>
      </trkpt>
      <trkpt lat="43.82385" lon="6.94037">
        <ele>1449.32</ele>
        <time>2021-01-06T10:33:41Z</time>
      </trkpt>
      <trkpt lat="43.82382" lon="6.94034">
        <ele>1449.81</ele>
        <time>2021-01-06T10:33:47Z</time>
      </trkpt>
      <trkpt lat="43.82378" lon="6.94026">
        <ele>1451.25</ele>
        <time>2021-01-06T10:33:56Z</time>
      </trkpt>
      <trkpt lat="43.82377" lon="6.94025">
        <ele>1452.21</ele>
        <time>2021-01-06T10:33:57Z</time>
      </trkpt>
      <trkpt lat="43.82374" lon="6.9402">
        <ele>1452.69</ele>
        <time>2021-01-06T10:34:03Z</time>
      </trkpt>
      <trkpt lat="43.82372" lon="6.94017">
        <ele>1453.17</ele>
        <time>2021-01-06T10:34:06Z</time>
      </trkpt>
      <trkpt lat="43.82371" lon="6.94015">
        <ele>1453.17</ele>
        <time>2021-01-06T10:34:07Z</time>
      </trkpt>
      <trkpt lat="43.8237" lon="6.94014">
        <ele>1453.17</ele>
        <time>2021-01-06T10:34:08Z</time>
      </trkpt>
      <trkpt lat="43.82369" lon="6.94013">
        <ele>1453.17</ele>
        <time>2021-01-06T10:34:09Z</time>
      </trkpt>
      <trkpt lat="43.82368" lon="6.94011">
        <ele>1453.17</ele>
        <time>2021-01-06T10:34:10Z</time>
      </trkpt>
      <trkpt lat="43.82367" lon="6.94009">
        <ele>1453.17</ele>
        <time>2021-01-06T10:34:11Z</time>
      </trkpt>
      <trkpt lat="43.82366" lon="6.94007">
        <ele>1453.17</ele>
        <time>2021-01-06T10:34:12Z</time>
      </trkpt>
      <trkpt lat="43.82361" lon="6.93998">
        <ele>1451.73</ele>
        <time>2021-01-06T10:34:15Z</time>
      </trkpt>
      <trkpt lat="43.82344" lon="6.93956">
        <ele>1449.81</ele>
        <time>2021-01-06T10:34:28Z</time>
      </trkpt>
      <trkpt lat="43.82321" lon="6.93925">
        <ele>1448.84</ele>
        <time>2021-01-06T10:34:39Z</time>
      </trkpt>
      <trkpt lat="43.82317" lon="6.93916">
        <ele>1447.4</ele>
        <time>2021-01-06T10:34:41Z</time>
      </trkpt>
      <trkpt lat="43.82316" lon="6.9391">
        <ele>1446.92</ele>
        <time>2021-01-06T10:34:42Z</time>
      </trkpt>
      <trkpt lat="43.82314" lon="6.93897">
        <ele>1445</ele>
        <time>2021-01-06T10:34:44Z</time>
      </trkpt>
      <trkpt lat="43.82311" lon="6.93843">
        <ele>1441.15</ele>
        <time>2021-01-06T10:34:51Z</time>
      </trkpt>
      <trkpt lat="43.82308" lon="6.93814">
        <ele>1437.79</ele>
        <time>2021-01-06T10:34:54Z</time>
      </trkpt>
      <trkpt lat="43.82306" lon="6.93805">
        <ele>1437.79</ele>
        <time>2021-01-06T10:34:55Z</time>
      </trkpt>
      <trkpt lat="43.82303" lon="6.93785">
        <ele>1439.23</ele>
        <time>2021-01-06T10:34:58Z</time>
      </trkpt>
      <trkpt lat="43.82299" lon="6.93765">
        <ele>1438.27</ele>
        <time>2021-01-06T10:35:01Z</time>
      </trkpt>
      <trkpt lat="43.82299" lon="6.93758">
        <ele>1438.27</ele>
        <time>2021-01-06T10:35:02Z</time>
      </trkpt>
      <trkpt lat="43.8228" lon="6.93717">
        <ele>1437.31</ele>
        <time>2021-01-06T10:35:11Z</time>
      </trkpt>
      <trkpt lat="43.82262" lon="6.93698">
        <ele>1436.83</ele>
        <time>2021-01-06T10:35:17Z</time>
      </trkpt>
      <trkpt lat="43.82261" lon="6.93685">
        <ele>1436.83</ele>
        <time>2021-01-06T10:35:20Z</time>
      </trkpt>
      <trkpt lat="43.82262" lon="6.93681">
        <ele>1436.83</ele>
        <time>2021-01-06T10:35:21Z</time>
      </trkpt>
      <trkpt lat="43.82264" lon="6.93678">
        <ele>1436.35</ele>
        <time>2021-01-06T10:35:22Z</time>
      </trkpt>
      <trkpt lat="43.82268" lon="6.93678">
        <ele>1436.35</ele>
        <time>2021-01-06T10:35:23Z</time>
      </trkpt>
      <trkpt lat="43.82273" lon="6.9368">
        <ele>1435.39</ele>
        <time>2021-01-06T10:35:24Z</time>
      </trkpt>
      <trkpt lat="43.82278" lon="6.93683">
        <ele>1434.42</ele>
        <time>2021-01-06T10:35:25Z</time>
      </trkpt>
      <trkpt lat="43.82284" lon="6.93685">
        <ele>1433.46</ele>
        <time>2021-01-06T10:35:26Z</time>
      </trkpt>
      <trkpt lat="43.8229" lon="6.93686">
        <ele>1432.98</ele>
        <time>2021-01-06T10:35:27Z</time>
      </trkpt>
      <trkpt lat="43.82295" lon="6.93686">
        <ele>1432.98</ele>
        <time>2021-01-06T10:35:28Z</time>
      </trkpt>
      <trkpt lat="43.823" lon="6.93685">
        <ele>1432.98</ele>
        <time>2021-01-06T10:35:29Z</time>
      </trkpt>
      <trkpt lat="43.82306" lon="6.93684">
        <ele>1432.5</ele>
        <time>2021-01-06T10:35:30Z</time>
      </trkpt>
      <trkpt lat="43.82312" lon="6.93683">
        <ele>1431.06</ele>
        <time>2021-01-06T10:35:31Z</time>
      </trkpt>
      <trkpt lat="43.82318" lon="6.93683">
        <ele>1430.58</ele>
        <time>2021-01-06T10:35:32Z</time>
      </trkpt>
      <trkpt lat="43.82324" lon="6.93684">
        <ele>1430.58</ele>
        <time>2021-01-06T10:35:33Z</time>
      </trkpt>
      <trkpt lat="43.8233" lon="6.93686">
        <ele>1428.66</ele>
        <time>2021-01-06T10:35:34Z</time>
      </trkpt>
      <trkpt lat="43.82337" lon="6.93689">
        <ele>1427.7</ele>
        <time>2021-01-06T10:35:35Z</time>
      </trkpt>
      <trkpt lat="43.82344" lon="6.93693">
        <ele>1426.25</ele>
        <time>2021-01-06T10:35:36Z</time>
      </trkpt>
      <trkpt lat="43.82351" lon="6.93697">
        <ele>1426.25</ele>
        <time>2021-01-06T10:35:37Z</time>
      </trkpt>
      <trkpt lat="43.82373" lon="6.93712">
        <ele>1425.29</ele>
        <time>2021-01-06T10:35:41Z</time>
      </trkpt>
      <trkpt lat="43.82378" lon="6.93712">
        <ele>1425.29</ele>
        <time>2021-01-06T10:35:42Z</time>
      </trkpt>
      <trkpt lat="43.82384" lon="6.93709">
        <ele>1425.29</ele>
        <time>2021-01-06T10:35:43Z</time>
      </trkpt>
      <trkpt lat="43.82394" lon="6.93699">
        <ele>1422.89</ele>
        <time>2021-01-06T10:35:47Z</time>
      </trkpt>
      <trkpt lat="43.82394" lon="6.93696">
        <ele>1422.41</ele>
        <time>2021-01-06T10:35:48Z</time>
      </trkpt>
      <trkpt lat="43.82392" lon="6.93692">
        <ele>1420.97</ele>
        <time>2021-01-06T10:35:49Z</time>
      </trkpt>
      <trkpt lat="43.82371" lon="6.93654">
        <ele>1418.56</ele>
        <time>2021-01-06T10:35:54Z</time>
      </trkpt>
      <trkpt lat="43.82366" lon="6.93636">
        <ele>1417.6</ele>
        <time>2021-01-06T10:35:56Z</time>
      </trkpt>
      <trkpt lat="43.82361" lon="6.93619">
        <ele>1417.12</ele>
        <time>2021-01-06T10:35:58Z</time>
      </trkpt>
      <trkpt lat="43.82357" lon="6.9361">
        <ele>1416.64</ele>
        <time>2021-01-06T10:35:59Z</time>
      </trkpt>
      <trkpt lat="43.82346" lon="6.93584">
        <ele>1412.79</ele>
        <time>2021-01-06T10:36:02Z</time>
      </trkpt>
      <trkpt lat="43.82325" lon="6.93536">
        <ele>1408.95</ele>
        <time>2021-01-06T10:36:07Z</time>
      </trkpt>
      <trkpt lat="43.82318" lon="6.93518">
        <ele>1408.47</ele>
        <time>2021-01-06T10:36:09Z</time>
      </trkpt>
      <trkpt lat="43.82305" lon="6.93487">
        <ele>1408.47</ele>
        <time>2021-01-06T10:36:13Z</time>
      </trkpt>
      <trkpt lat="43.82304" lon="6.93478">
        <ele>1406.55</ele>
        <time>2021-01-06T10:36:14Z</time>
      </trkpt>
      <trkpt lat="43.82304" lon="6.93457">
        <ele>1403.18</ele>
        <time>2021-01-06T10:36:16Z</time>
      </trkpt>
      <trkpt lat="43.82304" lon="6.9342">
        <ele>1399.34</ele>
        <time>2021-01-06T10:36:19Z</time>
      </trkpt>
      <trkpt lat="43.82302" lon="6.93408">
        <ele>1397.89</ele>
        <time>2021-01-06T10:36:20Z</time>
      </trkpt>
      <trkpt lat="43.823" lon="6.93395">
        <ele>1396.93</ele>
        <time>2021-01-06T10:36:21Z</time>
      </trkpt>
      <trkpt lat="43.82296" lon="6.93384">
        <ele>1396.45</ele>
        <time>2021-01-06T10:36:22Z</time>
      </trkpt>
      <trkpt lat="43.82292" lon="6.93374">
        <ele>1395.01</ele>
        <time>2021-01-06T10:36:23Z</time>
      </trkpt>
      <trkpt lat="43.82287" lon="6.93366">
        <ele>1395.01</ele>
        <time>2021-01-06T10:36:24Z</time>
      </trkpt>
      <trkpt lat="43.82282" lon="6.93358">
        <ele>1394.53</ele>
        <time>2021-01-06T10:36:25Z</time>
      </trkpt>
      <trkpt lat="43.82279" lon="6.93349">
        <ele>1394.05</ele>
        <time>2021-01-06T10:36:26Z</time>
      </trkpt>
      <trkpt lat="43.82278" lon="6.93341">
        <ele>1394.05</ele>
        <time>2021-01-06T10:36:27Z</time>
      </trkpt>
      <trkpt lat="43.82279" lon="6.93333">
        <ele>1394.05</ele>
        <time>2021-01-06T10:36:28Z</time>
      </trkpt>
      <trkpt lat="43.82285" lon="6.93317">
        <ele>1391.65</ele>
        <time>2021-01-06T10:36:33Z</time>
      </trkpt>
      <trkpt lat="43.82288" lon="6.93319">
        <ele>1391.17</ele>
        <time>2021-01-06T10:36:34Z</time>
      </trkpt>
      <trkpt lat="43.82293" lon="6.93324">
        <ele>1391.17</ele>
        <time>2021-01-06T10:36:35Z</time>
      </trkpt>
      <trkpt lat="43.823" lon="6.93332">
        <ele>1390.2</ele>
        <time>2021-01-06T10:36:36Z</time>
      </trkpt>
      <trkpt lat="43.8231" lon="6.93345">
        <ele>1390.2</ele>
        <time>2021-01-06T10:36:37Z</time>
      </trkpt>
      <trkpt lat="43.82317" lon="6.93354">
        <ele>1390.2</ele>
        <time>2021-01-06T10:36:38Z</time>
      </trkpt>
      <trkpt lat="43.82321" lon="6.9336">
        <ele>1390.2</ele>
        <time>2021-01-06T10:36:39Z</time>
      </trkpt>
      <trkpt lat="43.82342" lon="6.93391">
        <ele>1389.24</ele>
        <time>2021-01-06T10:36:44Z</time>
      </trkpt>
      <trkpt lat="43.82351" lon="6.93401">
        <ele>1387.8</ele>
        <time>2021-01-06T10:36:46Z</time>
      </trkpt>
      <trkpt lat="43.8237" lon="6.93424">
        <ele>1386.84</ele>
        <time>2021-01-06T10:36:50Z</time>
      </trkpt>
      <trkpt lat="43.82376" lon="6.93436">
        <ele>1386.36</ele>
        <time>2021-01-06T10:36:52Z</time>
      </trkpt>
      <trkpt lat="43.82379" lon="6.93441">
        <ele>1385.4</ele>
        <time>2021-01-06T10:36:53Z</time>
      </trkpt>
      <trkpt lat="43.82383" lon="6.93445">
        <ele>1385.4</ele>
        <time>2021-01-06T10:36:54Z</time>
      </trkpt>
      <trkpt lat="43.82387" lon="6.93448">
        <ele>1385.4</ele>
        <time>2021-01-06T10:36:55Z</time>
      </trkpt>
      <trkpt lat="43.82392" lon="6.93451">
        <ele>1385.4</ele>
        <time>2021-01-06T10:36:56Z</time>
      </trkpt>
      <trkpt lat="43.82425" lon="6.93469">
        <ele>1386.36</ele>
        <time>2021-01-06T10:37:05Z</time>
      </trkpt>
      <trkpt lat="43.82439" lon="6.93469">
        <ele>1386.36</ele>
        <time>2021-01-06T10:37:09Z</time>
      </trkpt>
      <trkpt lat="43.82443" lon="6.93466">
        <ele>1386.36</ele>
        <time>2021-01-06T10:37:10Z</time>
      </trkpt>
      <trkpt lat="43.82444" lon="6.93461">
        <ele>1384.92</ele>
        <time>2021-01-06T10:37:11Z</time>
      </trkpt>
      <trkpt lat="43.82445" lon="6.93455">
        <ele>1383.96</ele>
        <time>2021-01-06T10:37:12Z</time>
      </trkpt>
      <trkpt lat="43.82444" lon="6.93449">
        <ele>1383.47</ele>
        <time>2021-01-06T10:37:13Z</time>
      </trkpt>
      <trkpt lat="43.82441" lon="6.9343">
        <ele>1380.59</ele>
        <time>2021-01-06T10:37:16Z</time>
      </trkpt>
      <trkpt lat="43.8244" lon="6.93422">
        <ele>1380.59</ele>
        <time>2021-01-06T10:37:17Z</time>
      </trkpt>
      <trkpt lat="43.82439" lon="6.93415">
        <ele>1379.63</ele>
        <time>2021-01-06T10:37:18Z</time>
      </trkpt>
      <trkpt lat="43.8243" lon="6.93347">
        <ele>1380.11</ele>
        <time>2021-01-06T10:37:30Z</time>
      </trkpt>
      <trkpt lat="43.82431" lon="6.93342">
        <ele>1378.19</ele>
        <time>2021-01-06T10:37:31Z</time>
      </trkpt>
      <trkpt lat="43.82434" lon="6.9334">
        <ele>1378.19</ele>
        <time>2021-01-06T10:37:32Z</time>
      </trkpt>
      <trkpt lat="43.82438" lon="6.93339">
        <ele>1377.23</ele>
        <time>2021-01-06T10:37:33Z</time>
      </trkpt>
      <trkpt lat="43.82443" lon="6.93341">
        <ele>1376.26</ele>
        <time>2021-01-06T10:37:34Z</time>
      </trkpt>
      <trkpt lat="43.82448" lon="6.93345">
        <ele>1375.78</ele>
        <time>2021-01-06T10:37:35Z</time>
      </trkpt>
      <trkpt lat="43.82451" lon="6.93347">
        <ele>1375.3</ele>
        <time>2021-01-06T10:37:36Z</time>
      </trkpt>
      <trkpt lat="43.82472" lon="6.9336">
        <ele>1371.94</ele>
        <time>2021-01-06T10:37:39Z</time>
      </trkpt>
      <trkpt lat="43.82479" lon="6.93362">
        <ele>1371.94</ele>
        <time>2021-01-06T10:37:40Z</time>
      </trkpt>
      <trkpt lat="43.82506" lon="6.93361">
        <ele>1371.46</ele>
        <time>2021-01-06T10:37:45Z</time>
      </trkpt>
      <trkpt lat="43.8251" lon="6.9336">
        <ele>1371.46</ele>
        <time>2021-01-06T10:37:46Z</time>
      </trkpt>
      <trkpt lat="43.82514" lon="6.93358">
        <ele>1371.46</ele>
        <time>2021-01-06T10:37:47Z</time>
      </trkpt>
      <trkpt lat="43.82517" lon="6.93354">
        <ele>1371.46</ele>
        <time>2021-01-06T10:37:48Z</time>
      </trkpt>
      <trkpt lat="43.82519" lon="6.93349">
        <ele>1371.46</ele>
        <time>2021-01-06T10:37:49Z</time>
      </trkpt>
      <trkpt lat="43.8252" lon="6.93344">
        <ele>1371.46</ele>
        <time>2021-01-06T10:37:50Z</time>
      </trkpt>
      <trkpt lat="43.8252" lon="6.93338">
        <ele>1371.46</ele>
        <time>2021-01-06T10:37:51Z</time>
      </trkpt>
      <trkpt lat="43.82519" lon="6.93333">
        <ele>1371.94</ele>
        <time>2021-01-06T10:37:52Z</time>
      </trkpt>
      <trkpt lat="43.82519" lon="6.93328">
        <ele>1371.94</ele>
        <time>2021-01-06T10:37:53Z</time>
      </trkpt>
      <trkpt lat="43.82517" lon="6.93275">
        <ele>1371.46</ele>
        <time>2021-01-06T10:38:04Z</time>
      </trkpt>
      <trkpt lat="43.82517" lon="6.93269">
        <ele>1371.46</ele>
        <time>2021-01-06T10:38:05Z</time>
      </trkpt>
      <trkpt lat="43.82521" lon="6.9323">
        <ele>1370.02</ele>
        <time>2021-01-06T10:38:12Z</time>
      </trkpt>
      <trkpt lat="43.825" lon="6.93196">
        <ele>1370.5</ele>
        <time>2021-01-06T10:38:22Z</time>
      </trkpt>
      <trkpt lat="43.82497" lon="6.93193">
        <ele>1370.5</ele>
        <time>2021-01-06T10:38:23Z</time>
      </trkpt>
      <trkpt lat="43.82495" lon="6.93191">
        <ele>1370.5</ele>
        <time>2021-01-06T10:38:24Z</time>
      </trkpt>
      <trkpt lat="43.82493" lon="6.93189">
        <ele>1370.5</ele>
        <time>2021-01-06T10:38:25Z</time>
      </trkpt>
      <trkpt lat="43.82491" lon="6.93188">
        <ele>1370.5</ele>
        <time>2021-01-06T10:38:26Z</time>
      </trkpt>
      <trkpt lat="43.82489" lon="6.93186">
        <ele>1371.94</ele>
        <time>2021-01-06T10:38:29Z</time>
      </trkpt>
      <trkpt lat="43.82488" lon="6.93184">
        <ele>1372.42</ele>
        <time>2021-01-06T10:38:30Z</time>
      </trkpt>
      <trkpt lat="43.82487" lon="6.93184">
        <ele>1371.94</ele>
        <time>2021-01-06T10:38:31Z</time>
      </trkpt>
      <trkpt lat="43.82485" lon="6.93183">
        <ele>1372.9</ele>
        <time>2021-01-06T10:38:32Z</time>
      </trkpt>
      <trkpt lat="43.82479" lon="6.93178">
        <ele>1374.34</ele>
        <time>2021-01-06T10:38:41Z</time>
      </trkpt>
      <trkpt lat="43.82478" lon="6.93177">
        <ele>1374.34</ele>
        <time>2021-01-06T10:38:43Z</time>
      </trkpt>
      <trkpt lat="43.82477" lon="6.93176">
        <ele>1374.34</ele>
        <time>2021-01-06T10:38:44Z</time>
      </trkpt>
      <trkpt lat="43.82475" lon="6.93176">
        <ele>1375.3</ele>
        <time>2021-01-06T10:38:45Z</time>
      </trkpt>
      <trkpt lat="43.82466" lon="6.93172">
        <ele>1376.26</ele>
        <time>2021-01-06T10:38:56Z</time>
      </trkpt>
      <trkpt lat="43.82465" lon="6.93171">
        <ele>1376.75</ele>
        <time>2021-01-06T10:38:58Z</time>
      </trkpt>
      <trkpt lat="43.82464" lon="6.93171">
        <ele>1376.75</ele>
        <time>2021-01-06T10:38:59Z</time>
      </trkpt>
      <trkpt lat="43.82463" lon="6.93171">
        <ele>1376.75</ele>
        <time>2021-01-06T10:39:00Z</time>
      </trkpt>
      <trkpt lat="43.82462" lon="6.9317">
        <ele>1377.71</ele>
        <time>2021-01-06T10:39:01Z</time>
      </trkpt>
      <trkpt lat="43.82461" lon="6.9317">
        <ele>1377.23</ele>
        <time>2021-01-06T10:39:02Z</time>
      </trkpt>
      <trkpt lat="43.8246" lon="6.93169">
        <ele>1377.71</ele>
        <time>2021-01-06T10:39:03Z</time>
      </trkpt>
      <trkpt lat="43.82459" lon="6.93168">
        <ele>1377.23</ele>
        <time>2021-01-06T10:39:04Z</time>
      </trkpt>
      <trkpt lat="43.82458" lon="6.93168">
        <ele>1378.19</ele>
        <time>2021-01-06T10:39:05Z</time>
      </trkpt>
      <trkpt lat="43.82457" lon="6.93167">
        <ele>1377.71</ele>
        <time>2021-01-06T10:39:06Z</time>
      </trkpt>
      <trkpt lat="43.82454" lon="6.93166">
        <ele>1378.19</ele>
        <time>2021-01-06T10:39:09Z</time>
      </trkpt>
      <trkpt lat="43.82453" lon="6.93165">
        <ele>1379.15</ele>
        <time>2021-01-06T10:39:10Z</time>
      </trkpt>
      <trkpt lat="43.82452" lon="6.93165">
        <ele>1379.15</ele>
        <time>2021-01-06T10:39:11Z</time>
      </trkpt>
      <trkpt lat="43.82451" lon="6.93164">
        <ele>1379.15</ele>
        <time>2021-01-06T10:39:12Z</time>
      </trkpt>
      <trkpt lat="43.8245" lon="6.93163">
        <ele>1379.15</ele>
        <time>2021-01-06T10:39:13Z</time>
      </trkpt>
      <trkpt lat="43.82448" lon="6.93163">
        <ele>1379.15</ele>
        <time>2021-01-06T10:39:14Z</time>
      </trkpt>
      <trkpt lat="43.82447" lon="6.93162">
        <ele>1379.15</ele>
        <time>2021-01-06T10:39:15Z</time>
      </trkpt>
      <trkpt lat="43.82446" lon="6.93162">
        <ele>1379.63</ele>
        <time>2021-01-06T10:39:16Z</time>
      </trkpt>
      <trkpt lat="43.82445" lon="6.93161">
        <ele>1379.63</ele>
        <time>2021-01-06T10:39:17Z</time>
      </trkpt>
      <trkpt lat="43.82444" lon="6.93161">
        <ele>1380.11</ele>
        <time>2021-01-06T10:39:18Z</time>
      </trkpt>
      <trkpt lat="43.82443" lon="6.9316">
        <ele>1380.11</ele>
        <time>2021-01-06T10:39:19Z</time>
      </trkpt>
      <trkpt lat="43.82442" lon="6.9316">
        <ele>1380.11</ele>
        <time>2021-01-06T10:39:20Z</time>
      </trkpt>
      <trkpt lat="43.82433" lon="6.93154">
        <ele>1382.03</ele>
        <time>2021-01-06T10:39:33Z</time>
      </trkpt>
      <trkpt lat="43.82423" lon="6.93146">
        <ele>1383.96</ele>
        <time>2021-01-06T10:39:46Z</time>
      </trkpt>
      <trkpt lat="43.82416" lon="6.93144">
        <ele>1384.44</ele>
        <time>2021-01-06T10:39:53Z</time>
      </trkpt>
      <trkpt lat="43.82415" lon="6.93143">
        <ele>1384.92</ele>
        <time>2021-01-06T10:39:54Z</time>
      </trkpt>
      <trkpt lat="43.82413" lon="6.93144">
        <ele>1384.44</ele>
        <time>2021-01-06T10:39:55Z</time>
      </trkpt>
      <trkpt lat="43.82412" lon="6.93144">
        <ele>1384.92</ele>
        <time>2021-01-06T10:39:56Z</time>
      </trkpt>
      <trkpt lat="43.82411" lon="6.93145">
        <ele>1384.92</ele>
        <time>2021-01-06T10:39:57Z</time>
      </trkpt>
      <trkpt lat="43.8241" lon="6.93146">
        <ele>1385.4</ele>
        <time>2021-01-06T10:39:58Z</time>
      </trkpt>
      <trkpt lat="43.82399" lon="6.93156">
        <ele>1385.4</ele>
        <time>2021-01-06T10:40:06Z</time>
      </trkpt>
      <trkpt lat="43.82398" lon="6.93158">
        <ele>1385.4</ele>
        <time>2021-01-06T10:40:07Z</time>
      </trkpt>
      <trkpt lat="43.82397" lon="6.93161">
        <ele>1385.4</ele>
        <time>2021-01-06T10:40:08Z</time>
      </trkpt>
      <trkpt lat="43.82391" lon="6.93172">
        <ele>1385.88</ele>
        <time>2021-01-06T10:40:13Z</time>
      </trkpt>
      <trkpt lat="43.8239" lon="6.93174">
        <ele>1385.88</ele>
        <time>2021-01-06T10:40:14Z</time>
      </trkpt>
      <trkpt lat="43.82389" lon="6.93175">
        <ele>1385.88</ele>
        <time>2021-01-06T10:40:15Z</time>
      </trkpt>
      <trkpt lat="43.82387" lon="6.93177">
        <ele>1385.88</ele>
        <time>2021-01-06T10:40:16Z</time>
      </trkpt>
      <trkpt lat="43.82386" lon="6.93178">
        <ele>1385.88</ele>
        <time>2021-01-06T10:40:17Z</time>
      </trkpt>
      <trkpt lat="43.82384" lon="6.93179">
        <ele>1385.88</ele>
        <time>2021-01-06T10:40:18Z</time>
      </trkpt>
      <trkpt lat="43.82383" lon="6.9318">
        <ele>1385.88</ele>
        <time>2021-01-06T10:40:19Z</time>
      </trkpt>
      <trkpt lat="43.82381" lon="6.93181">
        <ele>1385.88</ele>
        <time>2021-01-06T10:40:20Z</time>
      </trkpt>
      <trkpt lat="43.82379" lon="6.93181">
        <ele>1385.88</ele>
        <time>2021-01-06T10:40:21Z</time>
      </trkpt>
      <trkpt lat="43.82376" lon="6.93182">
        <ele>1385.88</ele>
        <time>2021-01-06T10:40:22Z</time>
      </trkpt>
      <trkpt lat="43.82365" lon="6.93181">
        <ele>1383.96</ele>
        <time>2021-01-06T10:40:26Z</time>
      </trkpt>
      <trkpt lat="43.82341" lon="6.9318">
        <ele>1383.47</ele>
        <time>2021-01-06T10:40:39Z</time>
      </trkpt>
      <trkpt lat="43.8234" lon="6.9318">
        <ele>1384.92</ele>
        <time>2021-01-06T10:40:40Z</time>
      </trkpt>
      <trkpt lat="43.82339" lon="6.93181">
        <ele>1384.92</ele>
        <time>2021-01-06T10:40:41Z</time>
      </trkpt>
      <trkpt lat="43.82332" lon="6.93187">
        <ele>1385.88</ele>
        <time>2021-01-06T10:40:47Z</time>
      </trkpt>
      <trkpt lat="43.82331" lon="6.93188">
        <ele>1385.88</ele>
        <time>2021-01-06T10:40:48Z</time>
      </trkpt>
      <trkpt lat="43.8233" lon="6.93189">
        <ele>1386.36</ele>
        <time>2021-01-06T10:40:49Z</time>
      </trkpt>
      <trkpt lat="43.82329" lon="6.9319">
        <ele>1386.36</ele>
        <time>2021-01-06T10:40:50Z</time>
      </trkpt>
      <trkpt lat="43.82328" lon="6.93191">
        <ele>1386.84</ele>
        <time>2021-01-06T10:40:51Z</time>
      </trkpt>
      <trkpt lat="43.82326" lon="6.93192">
        <ele>1386.84</ele>
        <time>2021-01-06T10:40:52Z</time>
      </trkpt>
      <trkpt lat="43.82319" lon="6.93195">
        <ele>1387.32</ele>
        <time>2021-01-06T10:40:59Z</time>
      </trkpt>
      <trkpt lat="43.82301" lon="6.93184">
        <ele>1386.36</ele>
        <time>2021-01-06T10:41:07Z</time>
      </trkpt>
      <trkpt lat="43.82271" lon="6.93182">
        <ele>1385.88</ele>
        <time>2021-01-06T10:41:19Z</time>
      </trkpt>
      <trkpt lat="43.8224" lon="6.93189">
        <ele>1384.92</ele>
        <time>2021-01-06T10:41:29Z</time>
      </trkpt>
      <trkpt lat="43.82234" lon="6.93194">
        <ele>1386.84</ele>
        <time>2021-01-06T10:41:34Z</time>
      </trkpt>
      <trkpt lat="43.82227" lon="6.93207">
        <ele>1388.76</ele>
        <time>2021-01-06T10:41:46Z</time>
      </trkpt>
      <trkpt lat="43.82227" lon="6.93209">
        <ele>1388.76</ele>
        <time>2021-01-06T10:41:47Z</time>
      </trkpt>
      <trkpt lat="43.82228" lon="6.93214">
        <ele>1389.24</ele>
        <time>2021-01-06T10:41:50Z</time>
      </trkpt>
      <trkpt lat="43.82228" lon="6.93216">
        <ele>1389.24</ele>
        <time>2021-01-06T10:41:51Z</time>
      </trkpt>
      <trkpt lat="43.82225" lon="6.9323">
        <ele>1391.17</ele>
        <time>2021-01-06T10:42:01Z</time>
      </trkpt>
      <trkpt lat="43.82218" lon="6.93241">
        <ele>1392.61</ele>
        <time>2021-01-06T10:42:11Z</time>
      </trkpt>
      <trkpt lat="43.82213" lon="6.9325">
        <ele>1393.57</ele>
        <time>2021-01-06T10:42:18Z</time>
      </trkpt>
      <trkpt lat="43.82212" lon="6.93252">
        <ele>1393.57</ele>
        <time>2021-01-06T10:42:19Z</time>
      </trkpt>
      <trkpt lat="43.82211" lon="6.93254">
        <ele>1393.57</ele>
        <time>2021-01-06T10:42:20Z</time>
      </trkpt>
      <trkpt lat="43.8221" lon="6.93256">
        <ele>1393.57</ele>
        <time>2021-01-06T10:42:21Z</time>
      </trkpt>
      <trkpt lat="43.82209" lon="6.93258">
        <ele>1393.57</ele>
        <time>2021-01-06T10:42:22Z</time>
      </trkpt>
      <trkpt lat="43.8219" lon="6.93273">
        <ele>1390.2</ele>
        <time>2021-01-06T10:42:29Z</time>
      </trkpt>
      <trkpt lat="43.82185" lon="6.93275">
        <ele>1390.2</ele>
        <time>2021-01-06T10:42:30Z</time>
      </trkpt>
      <trkpt lat="43.82169" lon="6.93279">
        <ele>1386.84</ele>
        <time>2021-01-06T10:42:33Z</time>
      </trkpt>
      <trkpt lat="43.82156" lon="6.9328">
        <ele>1382.51</ele>
        <time>2021-01-06T10:42:35Z</time>
      </trkpt>
      <trkpt lat="43.82148" lon="6.93278">
        <ele>1381.55</ele>
        <time>2021-01-06T10:42:36Z</time>
      </trkpt>
      <trkpt lat="43.8214" lon="6.93276">
        <ele>1380.59</ele>
        <time>2021-01-06T10:42:37Z</time>
      </trkpt>
      <trkpt lat="43.82133" lon="6.93273">
        <ele>1380.59</ele>
        <time>2021-01-06T10:42:38Z</time>
      </trkpt>
      <trkpt lat="43.82127" lon="6.9327">
        <ele>1381.55</ele>
        <time>2021-01-06T10:42:39Z</time>
      </trkpt>
      <trkpt lat="43.82122" lon="6.93269">
        <ele>1382.51</ele>
        <time>2021-01-06T10:42:40Z</time>
      </trkpt>
      <trkpt lat="43.82117" lon="6.93269">
        <ele>1383.47</ele>
        <time>2021-01-06T10:42:41Z</time>
      </trkpt>
      <trkpt lat="43.82112" lon="6.9327">
        <ele>1382.99</ele>
        <time>2021-01-06T10:42:42Z</time>
      </trkpt>
      <trkpt lat="43.82108" lon="6.93272">
        <ele>1382.03</ele>
        <time>2021-01-06T10:42:43Z</time>
      </trkpt>
      <trkpt lat="43.82103" lon="6.93275">
        <ele>1381.55</ele>
        <time>2021-01-06T10:42:44Z</time>
      </trkpt>
      <trkpt lat="43.82099" lon="6.93278">
        <ele>1381.07</ele>
        <time>2021-01-06T10:42:45Z</time>
      </trkpt>
      <trkpt lat="43.82097" lon="6.93283">
        <ele>1381.07</ele>
        <time>2021-01-06T10:42:46Z</time>
      </trkpt>
      <trkpt lat="43.82092" lon="6.9331">
        <ele>1383.96</ele>
        <time>2021-01-06T10:42:56Z</time>
      </trkpt>
      <trkpt lat="43.82092" lon="6.93316">
        <ele>1384.92</ele>
        <time>2021-01-06T10:43:00Z</time>
      </trkpt>
      <trkpt lat="43.82092" lon="6.9332">
        <ele>1385.88</ele>
        <time>2021-01-06T10:43:03Z</time>
      </trkpt>
      <trkpt lat="43.82092" lon="6.93323">
        <ele>1385.88</ele>
        <time>2021-01-06T10:43:05Z</time>
      </trkpt>
      <trkpt lat="43.82088" lon="6.9333">
        <ele>1387.32</ele>
        <time>2021-01-06T10:43:12Z</time>
      </trkpt>
      <trkpt lat="43.82083" lon="6.93336">
        <ele>1388.76</ele>
        <time>2021-01-06T10:43:17Z</time>
      </trkpt>
      <trkpt lat="43.82082" lon="6.93337">
        <ele>1388.76</ele>
        <time>2021-01-06T10:43:18Z</time>
      </trkpt>
      <trkpt lat="43.82079" lon="6.93341">
        <ele>1389.24</ele>
        <time>2021-01-06T10:43:21Z</time>
      </trkpt>
      <trkpt lat="43.82077" lon="6.93344">
        <ele>1389.24</ele>
        <time>2021-01-06T10:43:23Z</time>
      </trkpt>
      <trkpt lat="43.82069" lon="6.93352">
        <ele>1389.24</ele>
        <time>2021-01-06T10:43:29Z</time>
      </trkpt>
      <trkpt lat="43.82069" lon="6.93354">
        <ele>1389.24</ele>
        <time>2021-01-06T10:43:30Z</time>
      </trkpt>
      <trkpt lat="43.82068" lon="6.93358">
        <ele>1388.28</ele>
        <time>2021-01-06T10:43:31Z</time>
      </trkpt>
      <trkpt lat="43.82067" lon="6.9337">
        <ele>1388.28</ele>
        <time>2021-01-06T10:43:34Z</time>
      </trkpt>
      <trkpt lat="43.82067" lon="6.93376">
        <ele>1388.28</ele>
        <time>2021-01-06T10:43:35Z</time>
      </trkpt>
      <trkpt lat="43.82068" lon="6.9338">
        <ele>1388.28</ele>
        <time>2021-01-06T10:43:36Z</time>
      </trkpt>
      <trkpt lat="43.82067" lon="6.93404">
        <ele>1388.76</ele>
        <time>2021-01-06T10:43:45Z</time>
      </trkpt>
      <trkpt lat="43.82067" lon="6.93406">
        <ele>1388.76</ele>
        <time>2021-01-06T10:43:46Z</time>
      </trkpt>
      <trkpt lat="43.82068" lon="6.93415">
        <ele>1389.24</ele>
        <time>2021-01-06T10:43:49Z</time>
      </trkpt>
      <trkpt lat="43.82069" lon="6.9342">
        <ele>1389.24</ele>
        <time>2021-01-06T10:43:51Z</time>
      </trkpt>
      <trkpt lat="43.82068" lon="6.93426">
        <ele>1389.24</ele>
        <time>2021-01-06T10:43:54Z</time>
      </trkpt>
      <trkpt lat="43.82068" lon="6.93427">
        <ele>1389.24</ele>
        <time>2021-01-06T10:43:55Z</time>
      </trkpt>
      <trkpt lat="43.82068" lon="6.93429">
        <ele>1389.24</ele>
        <time>2021-01-06T10:43:56Z</time>
      </trkpt>
      <trkpt lat="43.82066" lon="6.9346">
        <ele>1391.65</ele>
        <time>2021-01-06T10:44:13Z</time>
      </trkpt>
      <trkpt lat="43.82065" lon="6.93477">
        <ele>1395.49</ele>
        <time>2021-01-06T10:44:26Z</time>
      </trkpt>
      <trkpt lat="43.82067" lon="6.93495">
        <ele>1396.93</ele>
        <time>2021-01-06T10:44:42Z</time>
      </trkpt>
      <trkpt lat="43.82067" lon="6.93496">
        <ele>1397.41</ele>
        <time>2021-01-06T10:44:43Z</time>
      </trkpt>
      <trkpt lat="43.82067" lon="6.93506">
        <ele>1398.86</ele>
        <time>2021-01-06T10:44:53Z</time>
      </trkpt>
      <trkpt lat="43.82069" lon="6.93516">
        <ele>1400.78</ele>
        <time>2021-01-06T10:45:04Z</time>
      </trkpt>
      <trkpt lat="43.8207" lon="6.93524">
        <ele>1401.26</ele>
        <time>2021-01-06T10:45:11Z</time>
      </trkpt>
      <trkpt lat="43.82069" lon="6.93532">
        <ele>1403.18</ele>
        <time>2021-01-06T10:45:21Z</time>
      </trkpt>
      <trkpt lat="43.82068" lon="6.93542">
        <ele>1404.14</ele>
        <time>2021-01-06T10:45:30Z</time>
      </trkpt>
      <trkpt lat="43.82068" lon="6.93544">
        <ele>1404.14</ele>
        <time>2021-01-06T10:45:31Z</time>
      </trkpt>
      <trkpt lat="43.82067" lon="6.93545">
        <ele>1404.14</ele>
        <time>2021-01-06T10:45:32Z</time>
      </trkpt>
      <trkpt lat="43.82066" lon="6.93549">
        <ele>1405.1</ele>
        <time>2021-01-06T10:45:35Z</time>
      </trkpt>
      <trkpt lat="43.82065" lon="6.93551">
        <ele>1405.1</ele>
        <time>2021-01-06T10:45:36Z</time>
      </trkpt>
      <trkpt lat="43.82061" lon="6.93556">
        <ele>1405.1</ele>
        <time>2021-01-06T10:45:41Z</time>
      </trkpt>
      <trkpt lat="43.82059" lon="6.93557">
        <ele>1405.1</ele>
        <time>2021-01-06T10:45:42Z</time>
      </trkpt>
      <trkpt lat="43.82058" lon="6.93559">
        <ele>1405.1</ele>
        <time>2021-01-06T10:45:43Z</time>
      </trkpt>
      <trkpt lat="43.82056" lon="6.9356">
        <ele>1405.1</ele>
        <time>2021-01-06T10:45:44Z</time>
      </trkpt>
      <trkpt lat="43.82054" lon="6.93561">
        <ele>1405.1</ele>
        <time>2021-01-06T10:45:45Z</time>
      </trkpt>
      <trkpt lat="43.82051" lon="6.93563">
        <ele>1405.1</ele>
        <time>2021-01-06T10:45:46Z</time>
      </trkpt>
      <trkpt lat="43.82049" lon="6.93564">
        <ele>1405.1</ele>
        <time>2021-01-06T10:45:47Z</time>
      </trkpt>
      <trkpt lat="43.82047" lon="6.93564">
        <ele>1405.1</ele>
        <time>2021-01-06T10:45:48Z</time>
      </trkpt>
      <trkpt lat="43.82045" lon="6.93565">
        <ele>1405.1</ele>
        <time>2021-01-06T10:45:49Z</time>
      </trkpt>
      <trkpt lat="43.82043" lon="6.93566">
        <ele>1405.1</ele>
        <time>2021-01-06T10:45:50Z</time>
      </trkpt>
      <trkpt lat="43.82041" lon="6.93567">
        <ele>1405.1</ele>
        <time>2021-01-06T10:45:51Z</time>
      </trkpt>
      <trkpt lat="43.82039" lon="6.93567">
        <ele>1405.1</ele>
        <time>2021-01-06T10:45:52Z</time>
      </trkpt>
      <trkpt lat="43.82037" lon="6.93567">
        <ele>1405.1</ele>
        <time>2021-01-06T10:45:53Z</time>
      </trkpt>
      <trkpt lat="43.82035" lon="6.93568">
        <ele>1405.58</ele>
        <time>2021-01-06T10:45:54Z</time>
      </trkpt>
      <trkpt lat="43.82034" lon="6.93569">
        <ele>1405.58</ele>
        <time>2021-01-06T10:45:55Z</time>
      </trkpt>
      <trkpt lat="43.82032" lon="6.93569">
        <ele>1405.58</ele>
        <time>2021-01-06T10:45:56Z</time>
      </trkpt>
      <trkpt lat="43.82028" lon="6.93581">
        <ele>1407.03</ele>
        <time>2021-01-06T10:46:09Z</time>
      </trkpt>
      <trkpt lat="43.82028" lon="6.93585">
        <ele>1408.47</ele>
        <time>2021-01-06T10:46:12Z</time>
      </trkpt>
      <trkpt lat="43.82028" lon="6.93586">
        <ele>1408.47</ele>
        <time>2021-01-06T10:46:13Z</time>
      </trkpt>
      <trkpt lat="43.82028" lon="6.93588">
        <ele>1408.47</ele>
        <time>2021-01-06T10:46:15Z</time>
      </trkpt>
      <trkpt lat="43.82028" lon="6.9359">
        <ele>1408.47</ele>
        <time>2021-01-06T10:46:16Z</time>
      </trkpt>
      <trkpt lat="43.82028" lon="6.93592">
        <ele>1408.47</ele>
        <time>2021-01-06T10:46:17Z</time>
      </trkpt>
      <trkpt lat="43.82029" lon="6.93594">
        <ele>1408.47</ele>
        <time>2021-01-06T10:46:18Z</time>
      </trkpt>
      <trkpt lat="43.82029" lon="6.93595">
        <ele>1408.47</ele>
        <time>2021-01-06T10:46:19Z</time>
      </trkpt>
      <trkpt lat="43.8203" lon="6.93597">
        <ele>1408.95</ele>
        <time>2021-01-06T10:46:20Z</time>
      </trkpt>
      <trkpt lat="43.8203" lon="6.93599">
        <ele>1408.95</ele>
        <time>2021-01-06T10:46:21Z</time>
      </trkpt>
      <trkpt lat="43.8203" lon="6.93601">
        <ele>1408.95</ele>
        <time>2021-01-06T10:46:22Z</time>
      </trkpt>
      <trkpt lat="43.82031" lon="6.93603">
        <ele>1409.43</ele>
        <time>2021-01-06T10:46:23Z</time>
      </trkpt>
      <trkpt lat="43.82032" lon="6.93604">
        <ele>1409.43</ele>
        <time>2021-01-06T10:46:24Z</time>
      </trkpt>
      <trkpt lat="43.82032" lon="6.93606">
        <ele>1409.43</ele>
        <time>2021-01-06T10:46:25Z</time>
      </trkpt>
      <trkpt lat="43.82032" lon="6.93607">
        <ele>1409.43</ele>
        <time>2021-01-06T10:46:26Z</time>
      </trkpt>
      <trkpt lat="43.82033" lon="6.93609">
        <ele>1409.43</ele>
        <time>2021-01-06T10:46:27Z</time>
      </trkpt>
      <trkpt lat="43.82034" lon="6.9361">
        <ele>1409.43</ele>
        <time>2021-01-06T10:46:28Z</time>
      </trkpt>
      <trkpt lat="43.82035" lon="6.93611">
        <ele>1410.39</ele>
        <time>2021-01-06T10:46:29Z</time>
      </trkpt>
      <trkpt lat="43.82036" lon="6.93612">
        <ele>1410.39</ele>
        <time>2021-01-06T10:46:30Z</time>
      </trkpt>
      <trkpt lat="43.82037" lon="6.93614">
        <ele>1410.39</ele>
        <time>2021-01-06T10:46:31Z</time>
      </trkpt>
      <trkpt lat="43.82038" lon="6.93615">
        <ele>1410.39</ele>
        <time>2021-01-06T10:46:32Z</time>
      </trkpt>
      <trkpt lat="43.82038" lon="6.93616">
        <ele>1410.39</ele>
        <time>2021-01-06T10:46:33Z</time>
      </trkpt>
      <trkpt lat="43.82051" lon="6.93642">
        <ele>1410.39</ele>
        <time>2021-01-06T10:46:45Z</time>
      </trkpt>
      <trkpt lat="43.8206" lon="6.93657">
        <ele>1411.35</ele>
        <time>2021-01-06T10:46:55Z</time>
      </trkpt>
      <trkpt lat="43.82068" lon="6.93671">
        <ele>1412.31</ele>
        <time>2021-01-06T10:47:07Z</time>
      </trkpt>
      <trkpt lat="43.8207" lon="6.93678">
        <ele>1413.28</ele>
        <time>2021-01-06T10:47:12Z</time>
      </trkpt>
      <trkpt lat="43.82082" lon="6.93706">
        <ele>1414.72</ele>
        <time>2021-01-06T10:47:27Z</time>
      </trkpt>
      <trkpt lat="43.82095" lon="6.9373">
        <ele>1416.16</ele>
        <time>2021-01-06T10:47:41Z</time>
      </trkpt>
      <trkpt lat="43.82096" lon="6.93733">
        <ele>1416.16</ele>
        <time>2021-01-06T10:47:43Z</time>
      </trkpt>
      <trkpt lat="43.821" lon="6.9375">
        <ele>1418.56</ele>
        <time>2021-01-06T10:47:57Z</time>
      </trkpt>
      <trkpt lat="43.821" lon="6.93753">
        <ele>1419.04</ele>
        <time>2021-01-06T10:47:59Z</time>
      </trkpt>
      <trkpt lat="43.82101" lon="6.93764">
        <ele>1420.97</ele>
        <time>2021-01-06T10:48:10Z</time>
      </trkpt>
      <trkpt lat="43.821" lon="6.93773">
        <ele>1422.41</ele>
        <time>2021-01-06T10:48:20Z</time>
      </trkpt>
      <trkpt lat="43.82101" lon="6.93787">
        <ele>1425.77</ele>
        <time>2021-01-06T10:48:36Z</time>
      </trkpt>
      <trkpt lat="43.821" lon="6.93796">
        <ele>1427.21</ele>
        <time>2021-01-06T10:48:46Z</time>
      </trkpt>
      <trkpt lat="43.821" lon="6.93805">
        <ele>1429.14</ele>
        <time>2021-01-06T10:48:58Z</time>
      </trkpt>
      <trkpt lat="43.82102" lon="6.93808">
        <ele>1430.1</ele>
        <time>2021-01-06T10:49:02Z</time>
      </trkpt>
      <trkpt lat="43.82102" lon="6.93813">
        <ele>1430.58</ele>
        <time>2021-01-06T10:49:06Z</time>
      </trkpt>
      <trkpt lat="43.82102" lon="6.93814">
        <ele>1431.06</ele>
        <time>2021-01-06T10:49:07Z</time>
      </trkpt>
      <trkpt lat="43.82105" lon="6.93822">
        <ele>1432.02</ele>
        <time>2021-01-06T10:49:15Z</time>
      </trkpt>
      <trkpt lat="43.82105" lon="6.93832">
        <ele>1433.46</ele>
        <time>2021-01-06T10:49:25Z</time>
      </trkpt>
      <trkpt lat="43.82105" lon="6.93834">
        <ele>1433.46</ele>
        <time>2021-01-06T10:49:27Z</time>
      </trkpt>
      <trkpt lat="43.82106" lon="6.93841">
        <ele>1434.42</ele>
        <time>2021-01-06T10:49:35Z</time>
      </trkpt>
      <trkpt lat="43.82109" lon="6.9385">
        <ele>1435.87</ele>
        <time>2021-01-06T10:49:47Z</time>
      </trkpt>
      <trkpt lat="43.82112" lon="6.9386">
        <ele>1437.31</ele>
        <time>2021-01-06T10:49:59Z</time>
      </trkpt>
      <trkpt lat="43.82112" lon="6.93862">
        <ele>1437.31</ele>
        <time>2021-01-06T10:50:00Z</time>
      </trkpt>
      <trkpt lat="43.82114" lon="6.93875">
        <ele>1439.23</ele>
        <time>2021-01-06T10:50:12Z</time>
      </trkpt>
      <trkpt lat="43.82118" lon="6.93889">
        <ele>1441.15</ele>
        <time>2021-01-06T10:50:23Z</time>
      </trkpt>
      <trkpt lat="43.8212" lon="6.93907">
        <ele>1442.6</ele>
        <time>2021-01-06T10:50:37Z</time>
      </trkpt>
      <trkpt lat="43.8212" lon="6.93909">
        <ele>1443.08</ele>
        <time>2021-01-06T10:50:39Z</time>
      </trkpt>
      <trkpt lat="43.8212" lon="6.93911">
        <ele>1443.08</ele>
        <time>2021-01-06T10:50:40Z</time>
      </trkpt>
      <trkpt lat="43.82122" lon="6.93925">
        <ele>1444.52</ele>
        <time>2021-01-06T10:50:51Z</time>
      </trkpt>
      <trkpt lat="43.82123" lon="6.93926">
        <ele>1445</ele>
        <time>2021-01-06T10:50:52Z</time>
      </trkpt>
      <trkpt lat="43.82125" lon="6.93936">
        <ele>1445.96</ele>
        <time>2021-01-06T10:51:00Z</time>
      </trkpt>
      <trkpt lat="43.82128" lon="6.93948">
        <ele>1447.88</ele>
        <time>2021-01-06T10:51:11Z</time>
      </trkpt>
      <trkpt lat="43.8213" lon="6.93957">
        <ele>1448.84</ele>
        <time>2021-01-06T10:51:21Z</time>
      </trkpt>
      <trkpt lat="43.82133" lon="6.93967">
        <ele>1448.84</ele>
        <time>2021-01-06T10:51:31Z</time>
      </trkpt>
      <trkpt lat="43.82133" lon="6.93969">
        <ele>1449.32</ele>
        <time>2021-01-06T10:51:32Z</time>
      </trkpt>
      <trkpt lat="43.82136" lon="6.9398">
        <ele>1449.32</ele>
        <time>2021-01-06T10:51:39Z</time>
      </trkpt>
      <trkpt lat="43.82136" lon="6.93982">
        <ele>1449.32</ele>
        <time>2021-01-06T10:51:40Z</time>
      </trkpt>
      <trkpt lat="43.82136" lon="6.93983">
        <ele>1450.29</ele>
        <time>2021-01-06T10:51:41Z</time>
      </trkpt>
      <trkpt lat="43.82138" lon="6.9399">
        <ele>1450.77</ele>
        <time>2021-01-06T10:51:46Z</time>
      </trkpt>
      <trkpt lat="43.82138" lon="6.93992">
        <ele>1450.77</ele>
        <time>2021-01-06T10:51:47Z</time>
      </trkpt>
      <trkpt lat="43.82138" lon="6.93994">
        <ele>1451.25</ele>
        <time>2021-01-06T10:51:49Z</time>
      </trkpt>
      <trkpt lat="43.82138" lon="6.9401">
        <ele>1452.69</ele>
        <time>2021-01-06T10:52:02Z</time>
      </trkpt>
      <trkpt lat="43.82139" lon="6.94013">
        <ele>1452.69</ele>
        <time>2021-01-06T10:52:04Z</time>
      </trkpt>
      <trkpt lat="43.8214" lon="6.94016">
        <ele>1453.17</ele>
        <time>2021-01-06T10:52:06Z</time>
      </trkpt>
      <trkpt lat="43.8214" lon="6.94025">
        <ele>1454.61</ele>
        <time>2021-01-06T10:52:16Z</time>
      </trkpt>
      <trkpt lat="43.82141" lon="6.9403">
        <ele>1455.09</ele>
        <time>2021-01-06T10:52:20Z</time>
      </trkpt>
      <trkpt lat="43.82142" lon="6.94034">
        <ele>1455.57</ele>
        <time>2021-01-06T10:52:23Z</time>
      </trkpt>
      <trkpt lat="43.82142" lon="6.94036">
        <ele>1455.57</ele>
        <time>2021-01-06T10:52:24Z</time>
      </trkpt>
      <trkpt lat="43.82145" lon="6.94043">
        <ele>1456.05</ele>
        <time>2021-01-06T10:52:31Z</time>
      </trkpt>
      <trkpt lat="43.82146" lon="6.94047">
        <ele>1456.05</ele>
        <time>2021-01-06T10:52:34Z</time>
      </trkpt>
      <trkpt lat="43.82146" lon="6.94049">
        <ele>1456.05</ele>
        <time>2021-01-06T10:52:35Z</time>
      </trkpt>
      <trkpt lat="43.82147" lon="6.9405">
        <ele>1456.53</ele>
        <time>2021-01-06T10:52:36Z</time>
      </trkpt>
      <trkpt lat="43.82148" lon="6.94052">
        <ele>1456.53</ele>
        <time>2021-01-06T10:52:37Z</time>
      </trkpt>
      <trkpt lat="43.82149" lon="6.94053">
        <ele>1456.53</ele>
        <time>2021-01-06T10:52:38Z</time>
      </trkpt>
      <trkpt lat="43.82155" lon="6.94068">
        <ele>1457.98</ele>
        <time>2021-01-06T10:52:49Z</time>
      </trkpt>
      <trkpt lat="43.82159" lon="6.9408">
        <ele>1459.42</ele>
        <time>2021-01-06T10:52:59Z</time>
      </trkpt>
      <trkpt lat="43.82159" lon="6.94085">
        <ele>1460.38</ele>
        <time>2021-01-06T10:53:04Z</time>
      </trkpt>
      <trkpt lat="43.82158" lon="6.94094">
        <ele>1460.86</ele>
        <time>2021-01-06T10:53:10Z</time>
      </trkpt>
      <trkpt lat="43.82158" lon="6.94096">
        <ele>1461.34</ele>
        <time>2021-01-06T10:53:11Z</time>
      </trkpt>
      <trkpt lat="43.82158" lon="6.94097">
        <ele>1461.34</ele>
        <time>2021-01-06T10:53:12Z</time>
      </trkpt>
      <trkpt lat="43.82158" lon="6.94099">
        <ele>1461.82</ele>
        <time>2021-01-06T10:53:13Z</time>
      </trkpt>
      <trkpt lat="43.82158" lon="6.94101">
        <ele>1461.82</ele>
        <time>2021-01-06T10:53:14Z</time>
      </trkpt>
      <trkpt lat="43.82155" lon="6.94115">
        <ele>1463.74</ele>
        <time>2021-01-06T10:53:27Z</time>
      </trkpt>
      <trkpt lat="43.82155" lon="6.94125">
        <ele>1465.19</ele>
        <time>2021-01-06T10:53:38Z</time>
      </trkpt>
      <trkpt lat="43.82154" lon="6.94139">
        <ele>1466.63</ele>
        <time>2021-01-06T10:53:49Z</time>
      </trkpt>
      <trkpt lat="43.82154" lon="6.94141">
        <ele>1467.11</ele>
        <time>2021-01-06T10:53:51Z</time>
      </trkpt>
      <trkpt lat="43.82154" lon="6.94151">
        <ele>1469.03</ele>
        <time>2021-01-06T10:53:59Z</time>
      </trkpt>
      <trkpt lat="43.82153" lon="6.94163">
        <ele>1469.99</ele>
        <time>2021-01-06T10:54:09Z</time>
      </trkpt>
      <trkpt lat="43.82152" lon="6.94172">
        <ele>1470.47</ele>
        <time>2021-01-06T10:54:15Z</time>
      </trkpt>
      <trkpt lat="43.82147" lon="6.94197">
        <ele>1470.95</ele>
        <time>2021-01-06T10:54:28Z</time>
      </trkpt>
      <trkpt lat="43.82146" lon="6.942">
        <ele>1470.95</ele>
        <time>2021-01-06T10:54:30Z</time>
      </trkpt>
      <trkpt lat="43.82143" lon="6.94225">
        <ele>1472.4</ele>
        <time>2021-01-06T10:54:42Z</time>
      </trkpt>
      <trkpt lat="43.82144" lon="6.94239">
        <ele>1472.88</ele>
        <time>2021-01-06T10:54:49Z</time>
      </trkpt>
      <trkpt lat="43.82144" lon="6.94241">
        <ele>1472.88</ele>
        <time>2021-01-06T10:54:50Z</time>
      </trkpt>
      <trkpt lat="43.82145" lon="6.94243">
        <ele>1472.88</ele>
        <time>2021-01-06T10:54:51Z</time>
      </trkpt>
      <trkpt lat="43.82145" lon="6.94246">
        <ele>1472.88</ele>
        <time>2021-01-06T10:54:52Z</time>
      </trkpt>
      <trkpt lat="43.82145" lon="6.94248">
        <ele>1472.88</ele>
        <time>2021-01-06T10:54:53Z</time>
      </trkpt>
      <trkpt lat="43.82145" lon="6.9425">
        <ele>1472.88</ele>
        <time>2021-01-06T10:54:54Z</time>
      </trkpt>
      <trkpt lat="43.82145" lon="6.94253">
        <ele>1472.88</ele>
        <time>2021-01-06T10:54:55Z</time>
      </trkpt>
      <trkpt lat="43.82145" lon="6.94255">
        <ele>1472.88</ele>
        <time>2021-01-06T10:54:56Z</time>
      </trkpt>
      <trkpt lat="43.82146" lon="6.9426">
        <ele>1472.88</ele>
        <time>2021-01-06T10:54:58Z</time>
      </trkpt>
      <trkpt lat="43.82146" lon="6.94262">
        <ele>1472.88</ele>
        <time>2021-01-06T10:54:59Z</time>
      </trkpt>
      <trkpt lat="43.82146" lon="6.94264">
        <ele>1472.88</ele>
        <time>2021-01-06T10:55:00Z</time>
      </trkpt>
      <trkpt lat="43.82146" lon="6.94266">
        <ele>1472.88</ele>
        <time>2021-01-06T10:55:01Z</time>
      </trkpt>
      <trkpt lat="43.82146" lon="6.94267">
        <ele>1472.88</ele>
        <time>2021-01-06T10:55:02Z</time>
      </trkpt>
      <trkpt lat="43.82146" lon="6.94271">
        <ele>1472.88</ele>
        <time>2021-01-06T10:55:04Z</time>
      </trkpt>
      <trkpt lat="43.82145" lon="6.94273">
        <ele>1472.88</ele>
        <time>2021-01-06T10:55:05Z</time>
      </trkpt>
      <trkpt lat="43.82145" lon="6.94274">
        <ele>1472.88</ele>
        <time>2021-01-06T10:55:06Z</time>
      </trkpt>
      <trkpt lat="43.82142" lon="6.94285">
        <ele>1473.36</ele>
        <time>2021-01-06T10:55:15Z</time>
      </trkpt>
      <trkpt lat="43.82142" lon="6.94288">
        <ele>1474.32</ele>
        <time>2021-01-06T10:55:17Z</time>
      </trkpt>
      <trkpt lat="43.8214" lon="6.94296">
        <ele>1474.32</ele>
        <time>2021-01-06T10:55:26Z</time>
      </trkpt>
      <trkpt lat="43.82139" lon="6.94303">
        <ele>1475.28</ele>
        <time>2021-01-06T10:55:32Z</time>
      </trkpt>
      <trkpt lat="43.82139" lon="6.94305">
        <ele>1475.76</ele>
        <time>2021-01-06T10:55:33Z</time>
      </trkpt>
      <trkpt lat="43.82139" lon="6.94306">
        <ele>1475.76</ele>
        <time>2021-01-06T10:55:34Z</time>
      </trkpt>
      <trkpt lat="43.82138" lon="6.94308">
        <ele>1475.76</ele>
        <time>2021-01-06T10:55:35Z</time>
      </trkpt>
      <trkpt lat="43.82138" lon="6.94309">
        <ele>1475.76</ele>
        <time>2021-01-06T10:55:36Z</time>
      </trkpt>
      <trkpt lat="43.82137" lon="6.94314">
        <ele>1476.24</ele>
        <time>2021-01-06T10:55:39Z</time>
      </trkpt>
      <trkpt lat="43.82137" lon="6.94316">
        <ele>1476.72</ele>
        <time>2021-01-06T10:55:40Z</time>
      </trkpt>
      <trkpt lat="43.82136" lon="6.94317">
        <ele>1476.72</ele>
        <time>2021-01-06T10:55:41Z</time>
      </trkpt>
      <trkpt lat="43.82135" lon="6.94323">
        <ele>1476.72</ele>
        <time>2021-01-06T10:55:45Z</time>
      </trkpt>
      <trkpt lat="43.82134" lon="6.94325">
        <ele>1476.72</ele>
        <time>2021-01-06T10:55:46Z</time>
      </trkpt>
      <trkpt lat="43.82131" lon="6.94345">
        <ele>1476.72</ele>
        <time>2021-01-06T10:56:01Z</time>
      </trkpt>
      <trkpt lat="43.8213" lon="6.94349">
        <ele>1476.72</ele>
        <time>2021-01-06T10:56:04Z</time>
      </trkpt>
      <trkpt lat="43.8213" lon="6.94353">
        <ele>1477.68</ele>
        <time>2021-01-06T10:56:07Z</time>
      </trkpt>
      <trkpt lat="43.82129" lon="6.94354">
        <ele>1477.68</ele>
        <time>2021-01-06T10:56:08Z</time>
      </trkpt>
      <trkpt lat="43.82128" lon="6.94359">
        <ele>1479.13</ele>
        <time>2021-01-06T10:56:14Z</time>
      </trkpt>
      <trkpt lat="43.82127" lon="6.94366">
        <ele>1480.57</ele>
        <time>2021-01-06T10:56:22Z</time>
      </trkpt>
      <trkpt lat="43.82123" lon="6.94377">
        <ele>1482.49</ele>
        <time>2021-01-06T10:56:34Z</time>
      </trkpt>
      <trkpt lat="43.82122" lon="6.94378">
        <ele>1482.97</ele>
        <time>2021-01-06T10:56:35Z</time>
      </trkpt>
      <trkpt lat="43.82115" lon="6.94383">
        <ele>1484.41</ele>
        <time>2021-01-06T10:56:43Z</time>
      </trkpt>
      <trkpt lat="43.8211" lon="6.94387">
        <ele>1485.37</ele>
        <time>2021-01-06T10:56:52Z</time>
      </trkpt>
      <trkpt lat="43.82106" lon="6.94389">
        <ele>1486.82</ele>
        <time>2021-01-06T10:57:00Z</time>
      </trkpt>
      <trkpt lat="43.82099" lon="6.94393">
        <ele>1487.78</ele>
        <time>2021-01-06T10:57:10Z</time>
      </trkpt>
      <trkpt lat="43.82093" lon="6.94394">
        <ele>1488.26</ele>
        <time>2021-01-06T10:57:18Z</time>
      </trkpt>
      <trkpt lat="43.82085" lon="6.94393">
        <ele>1490.18</ele>
        <time>2021-01-06T10:57:29Z</time>
      </trkpt>
      <trkpt lat="43.82084" lon="6.94392">
        <ele>1490.18</ele>
        <time>2021-01-06T10:57:30Z</time>
      </trkpt>
      <trkpt lat="43.82083" lon="6.94392">
        <ele>1490.18</ele>
        <time>2021-01-06T10:57:31Z</time>
      </trkpt>
      <trkpt lat="43.82082" lon="6.94392">
        <ele>1489.7</ele>
        <time>2021-01-06T10:57:32Z</time>
      </trkpt>
      <trkpt lat="43.82081" lon="6.94392">
        <ele>1490.18</ele>
        <time>2021-01-06T10:57:33Z</time>
      </trkpt>
      <trkpt lat="43.8208" lon="6.94391">
        <ele>1490.18</ele>
        <time>2021-01-06T10:57:34Z</time>
      </trkpt>
      <trkpt lat="43.82074" lon="6.9439">
        <ele>1491.62</ele>
        <time>2021-01-06T10:57:42Z</time>
      </trkpt>
      <trkpt lat="43.82073" lon="6.94389">
        <ele>1492.1</ele>
        <time>2021-01-06T10:57:43Z</time>
      </trkpt>
      <trkpt lat="43.8207" lon="6.94388">
        <ele>1492.1</ele>
        <time>2021-01-06T10:57:46Z</time>
      </trkpt>
      <trkpt lat="43.82069" lon="6.94388">
        <ele>1493.06</ele>
        <time>2021-01-06T10:57:47Z</time>
      </trkpt>
      <trkpt lat="43.82068" lon="6.94388">
        <ele>1493.06</ele>
        <time>2021-01-06T10:57:48Z</time>
      </trkpt>
      <trkpt lat="43.82067" lon="6.94387">
        <ele>1493.06</ele>
        <time>2021-01-06T10:57:49Z</time>
      </trkpt>
      <trkpt lat="43.82066" lon="6.94387">
        <ele>1493.55</ele>
        <time>2021-01-06T10:57:50Z</time>
      </trkpt>
      <trkpt lat="43.82065" lon="6.94386">
        <ele>1493.55</ele>
        <time>2021-01-06T10:57:51Z</time>
      </trkpt>
      <trkpt lat="43.8206" lon="6.94382">
        <ele>1494.51</ele>
        <time>2021-01-06T10:57:57Z</time>
      </trkpt>
      <trkpt lat="43.82059" lon="6.94381">
        <ele>1494.51</ele>
        <time>2021-01-06T10:57:58Z</time>
      </trkpt>
      <trkpt lat="43.82048" lon="6.94379">
        <ele>1493.55</ele>
        <time>2021-01-06T10:58:09Z</time>
      </trkpt>
      <trkpt lat="43.82046" lon="6.94379">
        <ele>1493.55</ele>
        <time>2021-01-06T10:58:10Z</time>
      </trkpt>
      <trkpt lat="43.82044" lon="6.94378">
        <ele>1493.55</ele>
        <time>2021-01-06T10:58:11Z</time>
      </trkpt>
      <trkpt lat="43.82042" lon="6.94376">
        <ele>1490.66</ele>
        <time>2021-01-06T10:58:12Z</time>
      </trkpt>
      <trkpt lat="43.8204" lon="6.94375">
        <ele>1490.66</ele>
        <time>2021-01-06T10:58:13Z</time>
      </trkpt>
      <trkpt lat="43.82036" lon="6.94374">
        <ele>1490.66</ele>
        <time>2021-01-06T10:58:14Z</time>
      </trkpt>
      <trkpt lat="43.8201" lon="6.94365">
        <ele>1486.82</ele>
        <time>2021-01-06T10:58:19Z</time>
      </trkpt>
      <trkpt lat="43.82005" lon="6.94362">
        <ele>1486.82</ele>
        <time>2021-01-06T10:58:20Z</time>
      </trkpt>
      <trkpt lat="43.81992" lon="6.94356">
        <ele>1489.22</ele>
        <time>2021-01-06T10:58:24Z</time>
      </trkpt>
      <trkpt lat="43.81972" lon="6.94368">
        <ele>1488.26</ele>
        <time>2021-01-06T10:58:35Z</time>
      </trkpt>
      <trkpt lat="43.8196" lon="6.94382">
        <ele>1486.82</ele>
        <time>2021-01-06T10:58:40Z</time>
      </trkpt>
      <trkpt lat="43.81952" lon="6.94395">
        <ele>1486.82</ele>
        <time>2021-01-06T10:58:48Z</time>
      </trkpt>
      <trkpt lat="43.81951" lon="6.94399">
        <ele>1488.26</ele>
        <time>2021-01-06T10:58:51Z</time>
      </trkpt>
      <trkpt lat="43.81949" lon="6.94406">
        <ele>1489.7</ele>
        <time>2021-01-06T10:58:58Z</time>
      </trkpt>
      <trkpt lat="43.81949" lon="6.94417">
        <ele>1491.14</ele>
        <time>2021-01-06T10:59:07Z</time>
      </trkpt>
      <trkpt lat="43.81947" lon="6.94424">
        <ele>1493.06</ele>
        <time>2021-01-06T10:59:14Z</time>
      </trkpt>
      <trkpt lat="43.81946" lon="6.94433">
        <ele>1494.03</ele>
        <time>2021-01-06T10:59:21Z</time>
      </trkpt>
      <trkpt lat="43.81945" lon="6.94435">
        <ele>1494.99</ele>
        <time>2021-01-06T10:59:22Z</time>
      </trkpt>
      <trkpt lat="43.81945" lon="6.94437">
        <ele>1494.99</ele>
        <time>2021-01-06T10:59:23Z</time>
      </trkpt>
      <trkpt lat="43.81945" lon="6.94442">
        <ele>1495.95</ele>
        <time>2021-01-06T10:59:26Z</time>
      </trkpt>
      <trkpt lat="43.81944" lon="6.94443">
        <ele>1495.95</ele>
        <time>2021-01-06T10:59:27Z</time>
      </trkpt>
      <trkpt lat="43.81944" lon="6.94445">
        <ele>1495.95</ele>
        <time>2021-01-06T10:59:28Z</time>
      </trkpt>
      <trkpt lat="43.81944" lon="6.94447">
        <ele>1495.95</ele>
        <time>2021-01-06T10:59:29Z</time>
      </trkpt>
      <trkpt lat="43.81945" lon="6.9445">
        <ele>1496.91</ele>
        <time>2021-01-06T10:59:30Z</time>
      </trkpt>
      <trkpt lat="43.81945" lon="6.94452">
        <ele>1496.91</ele>
        <time>2021-01-06T10:59:31Z</time>
      </trkpt>
      <trkpt lat="43.81944" lon="6.94455">
        <ele>1496.91</ele>
        <time>2021-01-06T10:59:32Z</time>
      </trkpt>
      <trkpt lat="43.81943" lon="6.94479">
        <ele>1494.51</ele>
        <time>2021-01-06T10:59:42Z</time>
      </trkpt>
      <trkpt lat="43.8194" lon="6.94497">
        <ele>1493.06</ele>
        <time>2021-01-06T10:59:45Z</time>
      </trkpt>
      <trkpt lat="43.81937" lon="6.94518">
        <ele>1493.06</ele>
        <time>2021-01-06T10:59:55Z</time>
      </trkpt>
      <trkpt lat="43.81936" lon="6.9452">
        <ele>1493.06</ele>
        <time>2021-01-06T10:59:56Z</time>
      </trkpt>
      <trkpt lat="43.81935" lon="6.94528">
        <ele>1494.99</ele>
        <time>2021-01-06T11:00:02Z</time>
      </trkpt>
      <trkpt lat="43.81935" lon="6.9453">
        <ele>1494.99</ele>
        <time>2021-01-06T11:00:03Z</time>
      </trkpt>
      <trkpt lat="43.81935" lon="6.94534">
        <ele>1494.99</ele>
        <time>2021-01-06T11:00:05Z</time>
      </trkpt>
      <trkpt lat="43.81936" lon="6.94536">
        <ele>1494.99</ele>
        <time>2021-01-06T11:00:06Z</time>
      </trkpt>
      <trkpt lat="43.81932" lon="6.94566">
        <ele>1492.1</ele>
        <time>2021-01-06T11:00:14Z</time>
      </trkpt>
      <trkpt lat="43.8193" lon="6.94573">
        <ele>1491.62</ele>
        <time>2021-01-06T11:00:15Z</time>
      </trkpt>
      <trkpt lat="43.81928" lon="6.94578">
        <ele>1491.62</ele>
        <time>2021-01-06T11:00:16Z</time>
      </trkpt>
      <trkpt lat="43.81925" lon="6.94585">
        <ele>1491.62</ele>
        <time>2021-01-06T11:00:17Z</time>
      </trkpt>
      <trkpt lat="43.81923" lon="6.9459">
        <ele>1490.66</ele>
        <time>2021-01-06T11:00:18Z</time>
      </trkpt>
      <trkpt lat="43.81922" lon="6.94596">
        <ele>1490.66</ele>
        <time>2021-01-06T11:00:19Z</time>
      </trkpt>
      <trkpt lat="43.81922" lon="6.946">
        <ele>1490.66</ele>
        <time>2021-01-06T11:00:20Z</time>
      </trkpt>
      <trkpt lat="43.81922" lon="6.94605">
        <ele>1490.66</ele>
        <time>2021-01-06T11:00:21Z</time>
      </trkpt>
      <trkpt lat="43.81923" lon="6.94609">
        <ele>1490.66</ele>
        <time>2021-01-06T11:00:22Z</time>
      </trkpt>
      <trkpt lat="43.81924" lon="6.94612">
        <ele>1490.66</ele>
        <time>2021-01-06T11:00:23Z</time>
      </trkpt>
      <trkpt lat="43.81926" lon="6.94616">
        <ele>1490.66</ele>
        <time>2021-01-06T11:00:24Z</time>
      </trkpt>
      <trkpt lat="43.81948" lon="6.94637">
        <ele>1490.66</ele>
        <time>2021-01-06T11:00:36Z</time>
      </trkpt>
      <trkpt lat="43.81959" lon="6.94639">
        <ele>1490.66</ele>
        <time>2021-01-06T11:00:41Z</time>
      </trkpt>
      <trkpt lat="43.81962" lon="6.94638">
        <ele>1490.66</ele>
        <time>2021-01-06T11:00:42Z</time>
      </trkpt>
      <trkpt lat="43.81964" lon="6.94637">
        <ele>1490.66</ele>
        <time>2021-01-06T11:00:43Z</time>
      </trkpt>
      <trkpt lat="43.81966" lon="6.94636">
        <ele>1490.66</ele>
        <time>2021-01-06T11:00:44Z</time>
      </trkpt>
      <trkpt lat="43.81969" lon="6.94634">
        <ele>1490.66</ele>
        <time>2021-01-06T11:00:45Z</time>
      </trkpt>
      <trkpt lat="43.81971" lon="6.94633">
        <ele>1491.62</ele>
        <time>2021-01-06T11:00:46Z</time>
      </trkpt>
      <trkpt lat="43.81973" lon="6.94631">
        <ele>1491.62</ele>
        <time>2021-01-06T11:00:47Z</time>
      </trkpt>
      <trkpt lat="43.81974" lon="6.9463">
        <ele>1491.62</ele>
        <time>2021-01-06T11:00:48Z</time>
      </trkpt>
      <trkpt lat="43.81987" lon="6.94625">
        <ele>1492.1</ele>
        <time>2021-01-06T11:00:54Z</time>
      </trkpt>
      <trkpt lat="43.81989" lon="6.94625">
        <ele>1492.1</ele>
        <time>2021-01-06T11:00:55Z</time>
      </trkpt>
      <trkpt lat="43.81991" lon="6.94625">
        <ele>1492.1</ele>
        <time>2021-01-06T11:00:56Z</time>
      </trkpt>
      <trkpt lat="43.81993" lon="6.94625">
        <ele>1492.1</ele>
        <time>2021-01-06T11:00:57Z</time>
      </trkpt>
      <trkpt lat="43.81995" lon="6.94625">
        <ele>1492.1</ele>
        <time>2021-01-06T11:00:58Z</time>
      </trkpt>
      <trkpt lat="43.81996" lon="6.94625">
        <ele>1492.58</ele>
        <time>2021-01-06T11:00:59Z</time>
      </trkpt>
      <trkpt lat="43.81997" lon="6.94625">
        <ele>1492.58</ele>
        <time>2021-01-06T11:01:00Z</time>
      </trkpt>
      <trkpt lat="43.82016" lon="6.94641">
        <ele>1494.99</ele>
        <time>2021-01-06T11:01:15Z</time>
      </trkpt>
      <trkpt lat="43.8202" lon="6.94643">
        <ele>1494.51</ele>
        <time>2021-01-06T11:01:18Z</time>
      </trkpt>
      <trkpt lat="43.8202" lon="6.94644">
        <ele>1495.47</ele>
        <time>2021-01-06T11:01:19Z</time>
      </trkpt>
      <trkpt lat="43.82022" lon="6.94645">
        <ele>1495.95</ele>
        <time>2021-01-06T11:01:20Z</time>
      </trkpt>
      <trkpt lat="43.82023" lon="6.94646">
        <ele>1495.95</ele>
        <time>2021-01-06T11:01:21Z</time>
      </trkpt>
      <trkpt lat="43.82023" lon="6.94648">
        <ele>1495.95</ele>
        <time>2021-01-06T11:01:22Z</time>
      </trkpt>
      <trkpt lat="43.82025" lon="6.9465">
        <ele>1496.91</ele>
        <time>2021-01-06T11:01:24Z</time>
      </trkpt>
      <trkpt lat="43.8203" lon="6.94657">
        <ele>1497.87</ele>
        <time>2021-01-06T11:01:30Z</time>
      </trkpt>
      <trkpt lat="43.8204" lon="6.94665">
        <ele>1497.87</ele>
        <time>2021-01-06T11:01:39Z</time>
      </trkpt>
      <trkpt lat="43.82041" lon="6.94666">
        <ele>1497.87</ele>
        <time>2021-01-06T11:01:40Z</time>
      </trkpt>
      <trkpt lat="43.82043" lon="6.94667">
        <ele>1497.87</ele>
        <time>2021-01-06T11:01:41Z</time>
      </trkpt>
      <trkpt lat="43.82045" lon="6.9467">
        <ele>1497.87</ele>
        <time>2021-01-06T11:01:42Z</time>
      </trkpt>
      <trkpt lat="43.82047" lon="6.94671">
        <ele>1497.87</ele>
        <time>2021-01-06T11:01:43Z</time>
      </trkpt>
      <trkpt lat="43.82049" lon="6.94672">
        <ele>1498.35</ele>
        <time>2021-01-06T11:01:44Z</time>
      </trkpt>
      <trkpt lat="43.8205" lon="6.94673">
        <ele>1498.35</ele>
        <time>2021-01-06T11:01:45Z</time>
      </trkpt>
      <trkpt lat="43.82052" lon="6.94674">
        <ele>1498.35</ele>
        <time>2021-01-06T11:01:46Z</time>
      </trkpt>
      <trkpt lat="43.82054" lon="6.94674">
        <ele>1498.35</ele>
        <time>2021-01-06T11:01:47Z</time>
      </trkpt>
      <trkpt lat="43.82056" lon="6.94675">
        <ele>1498.35</ele>
        <time>2021-01-06T11:01:48Z</time>
      </trkpt>
      <trkpt lat="43.82057" lon="6.94677">
        <ele>1498.35</ele>
        <time>2021-01-06T11:01:49Z</time>
      </trkpt>
      <trkpt lat="43.8206" lon="6.94679">
        <ele>1498.83</ele>
        <time>2021-01-06T11:01:51Z</time>
      </trkpt>
      <trkpt lat="43.82062" lon="6.9468">
        <ele>1498.83</ele>
        <time>2021-01-06T11:01:52Z</time>
      </trkpt>
      <trkpt lat="43.82071" lon="6.94687">
        <ele>1497.39</ele>
        <time>2021-01-06T11:01:57Z</time>
      </trkpt>
      <trkpt lat="43.82078" lon="6.9469">
        <ele>1497.39</ele>
        <time>2021-01-06T11:02:01Z</time>
      </trkpt>
      <trkpt lat="43.82079" lon="6.9469">
        <ele>1497.39</ele>
        <time>2021-01-06T11:02:02Z</time>
      </trkpt>
      <trkpt lat="43.82081" lon="6.94691">
        <ele>1497.39</ele>
        <time>2021-01-06T11:02:03Z</time>
      </trkpt>
      <trkpt lat="43.82083" lon="6.94692">
        <ele>1497.39</ele>
        <time>2021-01-06T11:02:04Z</time>
      </trkpt>
      <trkpt lat="43.82085" lon="6.94692">
        <ele>1497.39</ele>
        <time>2021-01-06T11:02:05Z</time>
      </trkpt>
      <trkpt lat="43.82086" lon="6.94693">
        <ele>1497.39</ele>
        <time>2021-01-06T11:02:06Z</time>
      </trkpt>
      <trkpt lat="43.82088" lon="6.94693">
        <ele>1497.39</ele>
        <time>2021-01-06T11:02:07Z</time>
      </trkpt>
      <trkpt lat="43.82091" lon="6.94694">
        <ele>1497.39</ele>
        <time>2021-01-06T11:02:08Z</time>
      </trkpt>
      <trkpt lat="43.82094" lon="6.94694">
        <ele>1497.39</ele>
        <time>2021-01-06T11:02:09Z</time>
      </trkpt>
      <trkpt lat="43.82096" lon="6.94694">
        <ele>1497.39</ele>
        <time>2021-01-06T11:02:10Z</time>
      </trkpt>
      <trkpt lat="43.82099" lon="6.94695">
        <ele>1497.39</ele>
        <time>2021-01-06T11:02:11Z</time>
      </trkpt>
      <trkpt lat="43.82103" lon="6.94694">
        <ele>1497.39</ele>
        <time>2021-01-06T11:02:12Z</time>
      </trkpt>
      <trkpt lat="43.82105" lon="6.94694">
        <ele>1497.39</ele>
        <time>2021-01-06T11:02:13Z</time>
      </trkpt>
      <trkpt lat="43.82108" lon="6.94694">
        <ele>1497.39</ele>
        <time>2021-01-06T11:02:14Z</time>
      </trkpt>
      <trkpt lat="43.8211" lon="6.94694">
        <ele>1496.91</ele>
        <time>2021-01-06T11:02:15Z</time>
      </trkpt>
      <trkpt lat="43.82113" lon="6.94693">
        <ele>1498.35</ele>
        <time>2021-01-06T11:02:16Z</time>
      </trkpt>
      <trkpt lat="43.82115" lon="6.94693">
        <ele>1498.35</ele>
        <time>2021-01-06T11:02:17Z</time>
      </trkpt>
      <trkpt lat="43.82118" lon="6.94693">
        <ele>1498.35</ele>
        <time>2021-01-06T11:02:18Z</time>
      </trkpt>
      <trkpt lat="43.8212" lon="6.94693">
        <ele>1498.35</ele>
        <time>2021-01-06T11:02:19Z</time>
      </trkpt>
      <trkpt lat="43.82122" lon="6.94693">
        <ele>1498.35</ele>
        <time>2021-01-06T11:02:20Z</time>
      </trkpt>
      <trkpt lat="43.82125" lon="6.94692">
        <ele>1498.35</ele>
        <time>2021-01-06T11:02:21Z</time>
      </trkpt>
      <trkpt lat="43.82127" lon="6.94692">
        <ele>1497.39</ele>
        <time>2021-01-06T11:02:22Z</time>
      </trkpt>
      <trkpt lat="43.8213" lon="6.94692">
        <ele>1497.39</ele>
        <time>2021-01-06T11:02:23Z</time>
      </trkpt>
      <trkpt lat="43.82133" lon="6.94691">
        <ele>1497.39</ele>
        <time>2021-01-06T11:02:24Z</time>
      </trkpt>
      <trkpt lat="43.82136" lon="6.9469">
        <ele>1497.39</ele>
        <time>2021-01-06T11:02:25Z</time>
      </trkpt>
      <trkpt lat="43.82139" lon="6.94689">
        <ele>1497.39</ele>
        <time>2021-01-06T11:02:26Z</time>
      </trkpt>
      <trkpt lat="43.82167" lon="6.94693">
        <ele>1496.91</ele>
        <time>2021-01-06T11:02:37Z</time>
      </trkpt>
      <trkpt lat="43.82181" lon="6.94699">
        <ele>1496.91</ele>
        <time>2021-01-06T11:02:44Z</time>
      </trkpt>
      <trkpt lat="43.82183" lon="6.94699">
        <ele>1496.91</ele>
        <time>2021-01-06T11:02:45Z</time>
      </trkpt>
      <trkpt lat="43.82217" lon="6.94684">
        <ele>1494.51</ele>
        <time>2021-01-06T11:02:57Z</time>
      </trkpt>
      <trkpt lat="43.82235" lon="6.94673">
        <ele>1492.58</ele>
        <time>2021-01-06T11:03:02Z</time>
      </trkpt>
      <trkpt lat="43.8226" lon="6.94669">
        <ele>1492.58</ele>
        <time>2021-01-06T11:03:11Z</time>
      </trkpt>
      <trkpt lat="43.82261" lon="6.94667">
        <ele>1492.1</ele>
        <time>2021-01-06T11:03:12Z</time>
      </trkpt>
      <trkpt lat="43.82262" lon="6.94666">
        <ele>1492.58</ele>
        <time>2021-01-06T11:03:13Z</time>
      </trkpt>
      <trkpt lat="43.82264" lon="6.94664">
        <ele>1492.58</ele>
        <time>2021-01-06T11:03:14Z</time>
      </trkpt>
      <trkpt lat="43.82266" lon="6.94663">
        <ele>1492.1</ele>
        <time>2021-01-06T11:03:15Z</time>
      </trkpt>
      <trkpt lat="43.82285" lon="6.94631">
        <ele>1489.7</ele>
        <time>2021-01-06T11:03:24Z</time>
      </trkpt>
      <trkpt lat="43.82287" lon="6.94625">
        <ele>1489.22</ele>
        <time>2021-01-06T11:03:25Z</time>
      </trkpt>
      <trkpt lat="43.82288" lon="6.9462">
        <ele>1489.22</ele>
        <time>2021-01-06T11:03:26Z</time>
      </trkpt>
      <trkpt lat="43.82287" lon="6.94567">
        <ele>1488.26</ele>
        <time>2021-01-06T11:03:36Z</time>
      </trkpt>
      <trkpt lat="43.82287" lon="6.9455">
        <ele>1487.3</ele>
        <time>2021-01-06T11:03:39Z</time>
      </trkpt>
      <trkpt lat="43.8229" lon="6.94527">
        <ele>1487.3</ele>
        <time>2021-01-06T11:03:43Z</time>
      </trkpt>
      <trkpt lat="43.82299" lon="6.94473">
        <ele>1485.85</ele>
        <time>2021-01-06T11:03:56Z</time>
      </trkpt>
      <trkpt lat="43.82306" lon="6.94423">
        <ele>1482.49</ele>
        <time>2021-01-06T11:04:04Z</time>
      </trkpt>
      <trkpt lat="43.82305" lon="6.94417">
        <ele>1482.49</ele>
        <time>2021-01-06T11:04:05Z</time>
      </trkpt>
      <trkpt lat="43.82302" lon="6.9436">
        <ele>1480.57</ele>
        <time>2021-01-06T11:04:15Z</time>
      </trkpt>
      <trkpt lat="43.82303" lon="6.94353">
        <ele>1480.57</ele>
        <time>2021-01-06T11:04:16Z</time>
      </trkpt>
      <trkpt lat="43.82303" lon="6.94347">
        <ele>1480.57</ele>
        <time>2021-01-06T11:04:17Z</time>
      </trkpt>
      <trkpt lat="43.82307" lon="6.94333">
        <ele>1482.01</ele>
        <time>2021-01-06T11:04:20Z</time>
      </trkpt>
      <trkpt lat="43.82308" lon="6.94301">
        <ele>1480.09</ele>
        <time>2021-01-06T11:04:27Z</time>
      </trkpt>
      <trkpt lat="43.82306" lon="6.94294">
        <ele>1478.65</ele>
        <time>2021-01-06T11:04:28Z</time>
      </trkpt>
      <trkpt lat="43.82304" lon="6.94287">
        <ele>1478.65</ele>
        <time>2021-01-06T11:04:29Z</time>
      </trkpt>
      <trkpt lat="43.82296" lon="6.94258">
        <ele>1475.28</ele>
        <time>2021-01-06T11:04:33Z</time>
      </trkpt>
      <trkpt lat="43.82275" lon="6.942">
        <ele>1472.88</ele>
        <time>2021-01-06T11:04:42Z</time>
      </trkpt>
      <trkpt lat="43.82266" lon="6.94153">
        <ele>1471.92</ele>
        <time>2021-01-06T11:04:49Z</time>
      </trkpt>
      <trkpt lat="43.82266" lon="6.9414">
        <ele>1471.92</ele>
        <time>2021-01-06T11:04:51Z</time>
      </trkpt>
      <trkpt lat="43.82266" lon="6.94134">
        <ele>1471.44</ele>
        <time>2021-01-06T11:04:52Z</time>
      </trkpt>
      <trkpt lat="43.82267" lon="6.94129">
        <ele>1471.92</ele>
        <time>2021-01-06T11:04:53Z</time>
      </trkpt>
      <trkpt lat="43.82268" lon="6.94124">
        <ele>1471.92</ele>
        <time>2021-01-06T11:04:54Z</time>
      </trkpt>
      <trkpt lat="43.82269" lon="6.94119">
        <ele>1471.92</ele>
        <time>2021-01-06T11:04:55Z</time>
      </trkpt>
      <trkpt lat="43.8227" lon="6.94115">
        <ele>1471.92</ele>
        <time>2021-01-06T11:04:56Z</time>
      </trkpt>
      <trkpt lat="43.82272" lon="6.94111">
        <ele>1471.92</ele>
        <time>2021-01-06T11:04:57Z</time>
      </trkpt>
      <trkpt lat="43.82273" lon="6.94106">
        <ele>1471.92</ele>
        <time>2021-01-06T11:04:58Z</time>
      </trkpt>
      <trkpt lat="43.82274" lon="6.94102">
        <ele>1471.92</ele>
        <time>2021-01-06T11:04:59Z</time>
      </trkpt>
      <trkpt lat="43.82274" lon="6.94097">
        <ele>1470.47</ele>
        <time>2021-01-06T11:05:00Z</time>
      </trkpt>
      <trkpt lat="43.82275" lon="6.94091">
        <ele>1470.47</ele>
        <time>2021-01-06T11:05:01Z</time>
      </trkpt>
      <trkpt lat="43.82275" lon="6.94084">
        <ele>1469.99</ele>
        <time>2021-01-06T11:05:02Z</time>
      </trkpt>
      <trkpt lat="43.82275" lon="6.94077">
        <ele>1469.03</ele>
        <time>2021-01-06T11:05:03Z</time>
      </trkpt>
      <trkpt lat="43.82274" lon="6.9407">
        <ele>1468.55</ele>
        <time>2021-01-06T11:05:04Z</time>
      </trkpt>
      <trkpt lat="43.8227" lon="6.94057">
        <ele>1467.59</ele>
        <time>2021-01-06T11:05:06Z</time>
      </trkpt>
      <trkpt lat="43.8227" lon="6.94051">
        <ele>1467.59</ele>
        <time>2021-01-06T11:05:07Z</time>
      </trkpt>
      <trkpt lat="43.82271" lon="6.94046">
        <ele>1467.59</ele>
        <time>2021-01-06T11:05:08Z</time>
      </trkpt>
      <trkpt lat="43.82274" lon="6.94046">
        <ele>1467.59</ele>
        <time>2021-01-06T11:05:09Z</time>
      </trkpt>
      <trkpt lat="43.82277" lon="6.94048">
        <ele>1467.59</ele>
        <time>2021-01-06T11:05:10Z</time>
      </trkpt>
      <trkpt lat="43.82281" lon="6.94052">
        <ele>1467.59</ele>
        <time>2021-01-06T11:05:11Z</time>
      </trkpt>
      <trkpt lat="43.82283" lon="6.94056">
        <ele>1467.11</ele>
        <time>2021-01-06T11:05:12Z</time>
      </trkpt>
      <trkpt lat="43.82285" lon="6.9406">
        <ele>1466.63</ele>
        <time>2021-01-06T11:05:13Z</time>
      </trkpt>
      <trkpt lat="43.82287" lon="6.94065">
        <ele>1466.63</ele>
        <time>2021-01-06T11:05:14Z</time>
      </trkpt>
      <trkpt lat="43.82289" lon="6.9407">
        <ele>1466.15</ele>
        <time>2021-01-06T11:05:15Z</time>
      </trkpt>
      <trkpt lat="43.8229" lon="6.94076">
        <ele>1465.67</ele>
        <time>2021-01-06T11:05:16Z</time>
      </trkpt>
      <trkpt lat="43.82297" lon="6.94123">
        <ele>1465.19</ele>
        <time>2021-01-06T11:05:25Z</time>
      </trkpt>
      <trkpt lat="43.82299" lon="6.94136">
        <ele>1464.71</ele>
        <time>2021-01-06T11:05:27Z</time>
      </trkpt>
      <trkpt lat="43.82301" lon="6.94142">
        <ele>1463.74</ele>
        <time>2021-01-06T11:05:28Z</time>
      </trkpt>
      <trkpt lat="43.82303" lon="6.94149">
        <ele>1463.26</ele>
        <time>2021-01-06T11:05:29Z</time>
      </trkpt>
      <trkpt lat="43.82305" lon="6.94155">
        <ele>1462.3</ele>
        <time>2021-01-06T11:05:30Z</time>
      </trkpt>
      <trkpt lat="43.82307" lon="6.9416">
        <ele>1462.3</ele>
        <time>2021-01-06T11:05:31Z</time>
      </trkpt>
      <trkpt lat="43.82309" lon="6.94165">
        <ele>1462.3</ele>
        <time>2021-01-06T11:05:32Z</time>
      </trkpt>
      <trkpt lat="43.82312" lon="6.94174">
        <ele>1463.74</ele>
        <time>2021-01-06T11:05:34Z</time>
      </trkpt>
      <trkpt lat="43.82332" lon="6.94212">
        <ele>1462.3</ele>
        <time>2021-01-06T11:05:44Z</time>
      </trkpt>
      <trkpt lat="43.82369" lon="6.94223">
        <ele>1461.82</ele>
        <time>2021-01-06T11:05:54Z</time>
      </trkpt>
      <trkpt lat="43.82417" lon="6.94228">
        <ele>1458.94</ele>
        <time>2021-01-06T11:06:07Z</time>
      </trkpt>
      <trkpt lat="43.82431" lon="6.94228">
        <ele>1457.5</ele>
        <time>2021-01-06T11:06:10Z</time>
      </trkpt>
      <trkpt lat="43.82455" lon="6.94227">
        <ele>1455.57</ele>
        <time>2021-01-06T11:06:15Z</time>
      </trkpt>
      <trkpt lat="43.82485" lon="6.94219">
        <ele>1452.21</ele>
        <time>2021-01-06T11:06:21Z</time>
      </trkpt>
      <trkpt lat="43.82517" lon="6.94209">
        <ele>1449.32</ele>
        <time>2021-01-06T11:06:26Z</time>
      </trkpt>
      <trkpt lat="43.82523" lon="6.94206">
        <ele>1449.32</ele>
        <time>2021-01-06T11:06:27Z</time>
      </trkpt>
      <trkpt lat="43.82554" lon="6.94196">
        <ele>1446.92</ele>
        <time>2021-01-06T11:06:32Z</time>
      </trkpt>
      <trkpt lat="43.82593" lon="6.94192">
        <ele>1443.56</ele>
        <time>2021-01-06T11:06:38Z</time>
      </trkpt>
      <trkpt lat="43.82619" lon="6.9419">
        <ele>1441.15</ele>
        <time>2021-01-06T11:06:42Z</time>
      </trkpt>
      <trkpt lat="43.82639" lon="6.94191">
        <ele>1439.23</ele>
        <time>2021-01-06T11:06:45Z</time>
      </trkpt>
      <trkpt lat="43.82669" lon="6.94197">
        <ele>1441.15</ele>
        <time>2021-01-06T11:06:51Z</time>
      </trkpt>
      <trkpt lat="43.82689" lon="6.94201">
        <ele>1439.23</ele>
        <time>2021-01-06T11:06:56Z</time>
      </trkpt>
      <trkpt lat="43.82705" lon="6.94204">
        <ele>1441.15</ele>
        <time>2021-01-06T11:07:00Z</time>
      </trkpt>
      <trkpt lat="43.82717" lon="6.94208">
        <ele>1439.71</ele>
        <time>2021-01-06T11:07:03Z</time>
      </trkpt>
      <trkpt lat="43.82734" lon="6.94212">
        <ele>1437.31</ele>
        <time>2021-01-06T11:07:07Z</time>
      </trkpt>
      <trkpt lat="43.82743" lon="6.94215">
        <ele>1437.31</ele>
        <time>2021-01-06T11:07:09Z</time>
      </trkpt>
      <trkpt lat="43.82764" lon="6.94224">
        <ele>1434.91</ele>
        <time>2021-01-06T11:07:13Z</time>
      </trkpt>
      <trkpt lat="43.82793" lon="6.94236">
        <ele>1433.46</ele>
        <time>2021-01-06T11:07:18Z</time>
      </trkpt>
      <trkpt lat="43.82803" lon="6.94239">
        <ele>1434.91</ele>
        <time>2021-01-06T11:07:20Z</time>
      </trkpt>
      <trkpt lat="43.82822" lon="6.94253">
        <ele>1434.91</ele>
        <time>2021-01-06T11:07:25Z</time>
      </trkpt>
      <trkpt lat="43.82825" lon="6.94257">
        <ele>1433.46</ele>
        <time>2021-01-06T11:07:26Z</time>
      </trkpt>
      <trkpt lat="43.82828" lon="6.94261">
        <ele>1433.46</ele>
        <time>2021-01-06T11:07:27Z</time>
      </trkpt>
      <trkpt lat="43.82832" lon="6.94267">
        <ele>1431.54</ele>
        <time>2021-01-06T11:07:28Z</time>
      </trkpt>
      <trkpt lat="43.82835" lon="6.94273">
        <ele>1431.54</ele>
        <time>2021-01-06T11:07:29Z</time>
      </trkpt>
      <trkpt lat="43.82838" lon="6.9428">
        <ele>1430.58</ele>
        <time>2021-01-06T11:07:30Z</time>
      </trkpt>
      <trkpt lat="43.82841" lon="6.94287">
        <ele>1430.58</ele>
        <time>2021-01-06T11:07:31Z</time>
      </trkpt>
      <trkpt lat="43.82843" lon="6.94294">
        <ele>1430.58</ele>
        <time>2021-01-06T11:07:32Z</time>
      </trkpt>
      <trkpt lat="43.82844" lon="6.943">
        <ele>1430.58</ele>
        <time>2021-01-06T11:07:33Z</time>
      </trkpt>
      <trkpt lat="43.82844" lon="6.94305">
        <ele>1430.58</ele>
        <time>2021-01-06T11:07:34Z</time>
      </trkpt>
      <trkpt lat="43.82845" lon="6.9431">
        <ele>1430.58</ele>
        <time>2021-01-06T11:07:35Z</time>
      </trkpt>
      <trkpt lat="43.82845" lon="6.94315">
        <ele>1430.58</ele>
        <time>2021-01-06T11:07:36Z</time>
      </trkpt>
      <trkpt lat="43.82846" lon="6.9432">
        <ele>1430.58</ele>
        <time>2021-01-06T11:07:37Z</time>
      </trkpt>
      <trkpt lat="43.82846" lon="6.94324">
        <ele>1432.02</ele>
        <time>2021-01-06T11:07:38Z</time>
      </trkpt>
      <trkpt lat="43.82847" lon="6.94329">
        <ele>1432.02</ele>
        <time>2021-01-06T11:07:39Z</time>
      </trkpt>
      <trkpt lat="43.82847" lon="6.94333">
        <ele>1432.02</ele>
        <time>2021-01-06T11:07:40Z</time>
      </trkpt>
      <trkpt lat="43.82847" lon="6.94338">
        <ele>1432.02</ele>
        <time>2021-01-06T11:07:41Z</time>
      </trkpt>
      <trkpt lat="43.82848" lon="6.94343">
        <ele>1432.02</ele>
        <time>2021-01-06T11:07:42Z</time>
      </trkpt>
      <trkpt lat="43.82848" lon="6.94347">
        <ele>1432.02</ele>
        <time>2021-01-06T11:07:43Z</time>
      </trkpt>
      <trkpt lat="43.82849" lon="6.94352">
        <ele>1432.02</ele>
        <time>2021-01-06T11:07:44Z</time>
      </trkpt>
      <trkpt lat="43.82849" lon="6.94356">
        <ele>1432.02</ele>
        <time>2021-01-06T11:07:45Z</time>
      </trkpt>
      <trkpt lat="43.82849" lon="6.9436">
        <ele>1432.02</ele>
        <time>2021-01-06T11:07:46Z</time>
      </trkpt>
      <trkpt lat="43.82849" lon="6.94364">
        <ele>1432.5</ele>
        <time>2021-01-06T11:07:47Z</time>
      </trkpt>
      <trkpt lat="43.82849" lon="6.94368">
        <ele>1432.5</ele>
        <time>2021-01-06T11:07:48Z</time>
      </trkpt>
      <trkpt lat="43.82848" lon="6.94371">
        <ele>1432.98</ele>
        <time>2021-01-06T11:07:49Z</time>
      </trkpt>
      <trkpt lat="43.82848" lon="6.94374">
        <ele>1432.98</ele>
        <time>2021-01-06T11:07:50Z</time>
      </trkpt>
      <trkpt lat="43.82848" lon="6.94377">
        <ele>1432.98</ele>
        <time>2021-01-06T11:07:51Z</time>
      </trkpt>
      <trkpt lat="43.82847" lon="6.9438">
        <ele>1432.98</ele>
        <time>2021-01-06T11:07:52Z</time>
      </trkpt>
      <trkpt lat="43.82846" lon="6.94383">
        <ele>1433.46</ele>
        <time>2021-01-06T11:07:53Z</time>
      </trkpt>
      <trkpt lat="43.82847" lon="6.94424">
        <ele>1432.5</ele>
        <time>2021-01-06T11:08:03Z</time>
      </trkpt>
      <trkpt lat="43.82858" lon="6.94454">
        <ele>1433.94</ele>
        <time>2021-01-06T11:08:14Z</time>
      </trkpt>
      <trkpt lat="43.82858" lon="6.94457">
        <ele>1433.94</ele>
        <time>2021-01-06T11:08:15Z</time>
      </trkpt>
      <trkpt lat="43.82858" lon="6.9446">
        <ele>1434.91</ele>
        <time>2021-01-06T11:08:16Z</time>
      </trkpt>
      <trkpt lat="43.82859" lon="6.94463">
        <ele>1433.46</ele>
        <time>2021-01-06T11:08:17Z</time>
      </trkpt>
      <trkpt lat="43.82859" lon="6.94467">
        <ele>1433.46</ele>
        <time>2021-01-06T11:08:18Z</time>
      </trkpt>
      <trkpt lat="43.82859" lon="6.9447">
        <ele>1433.46</ele>
        <time>2021-01-06T11:08:19Z</time>
      </trkpt>
      <trkpt lat="43.82859" lon="6.94474">
        <ele>1433.46</ele>
        <time>2021-01-06T11:08:20Z</time>
      </trkpt>
      <trkpt lat="43.82858" lon="6.94478">
        <ele>1433.46</ele>
        <time>2021-01-06T11:08:21Z</time>
      </trkpt>
      <trkpt lat="43.82857" lon="6.94482">
        <ele>1432.02</ele>
        <time>2021-01-06T11:08:22Z</time>
      </trkpt>
      <trkpt lat="43.82855" lon="6.94487">
        <ele>1433.46</ele>
        <time>2021-01-06T11:08:23Z</time>
      </trkpt>
      <trkpt lat="43.82854" lon="6.94491">
        <ele>1433.46</ele>
        <time>2021-01-06T11:08:24Z</time>
      </trkpt>
      <trkpt lat="43.8285" lon="6.94499">
        <ele>1432.5</ele>
        <time>2021-01-06T11:08:26Z</time>
      </trkpt>
      <trkpt lat="43.82847" lon="6.94513">
        <ele>1431.54</ele>
        <time>2021-01-06T11:08:29Z</time>
      </trkpt>
      <trkpt lat="43.82847" lon="6.94518">
        <ele>1431.54</ele>
        <time>2021-01-06T11:08:30Z</time>
      </trkpt>
      <trkpt lat="43.82848" lon="6.94522">
        <ele>1431.54</ele>
        <time>2021-01-06T11:08:31Z</time>
      </trkpt>
      <trkpt lat="43.82849" lon="6.94525">
        <ele>1432.98</ele>
        <time>2021-01-06T11:08:32Z</time>
      </trkpt>
      <trkpt lat="43.82849" lon="6.94529">
        <ele>1432.98</ele>
        <time>2021-01-06T11:08:33Z</time>
      </trkpt>
      <trkpt lat="43.82855" lon="6.94565">
        <ele>1433.94</ele>
        <time>2021-01-06T11:08:44Z</time>
      </trkpt>
      <trkpt lat="43.82855" lon="6.94579">
        <ele>1434.42</ele>
        <time>2021-01-06T11:08:49Z</time>
      </trkpt>
      <trkpt lat="43.82855" lon="6.94582">
        <ele>1434.42</ele>
        <time>2021-01-06T11:08:50Z</time>
      </trkpt>
      <trkpt lat="43.82854" lon="6.94586">
        <ele>1434.42</ele>
        <time>2021-01-06T11:08:51Z</time>
      </trkpt>
      <trkpt lat="43.82854" lon="6.94589">
        <ele>1434.42</ele>
        <time>2021-01-06T11:08:52Z</time>
      </trkpt>
      <trkpt lat="43.82853" lon="6.94593">
        <ele>1434.42</ele>
        <time>2021-01-06T11:08:53Z</time>
      </trkpt>
      <trkpt lat="43.82852" lon="6.94597">
        <ele>1433.46</ele>
        <time>2021-01-06T11:08:54Z</time>
      </trkpt>
      <trkpt lat="43.8285" lon="6.94601">
        <ele>1432.98</ele>
        <time>2021-01-06T11:08:55Z</time>
      </trkpt>
      <trkpt lat="43.82849" lon="6.94605">
        <ele>1432.98</ele>
        <time>2021-01-06T11:08:56Z</time>
      </trkpt>
      <trkpt lat="43.82827" lon="6.94647">
        <ele>1433.46</ele>
        <time>2021-01-06T11:09:08Z</time>
      </trkpt>
      <trkpt lat="43.82805" lon="6.94675">
        <ele>1431.54</ele>
        <time>2021-01-06T11:09:20Z</time>
      </trkpt>
      <trkpt lat="43.82802" lon="6.94679">
        <ele>1431.54</ele>
        <time>2021-01-06T11:09:21Z</time>
      </trkpt>
      <trkpt lat="43.82781" lon="6.94702">
        <ele>1431.54</ele>
        <time>2021-01-06T11:09:28Z</time>
      </trkpt>
      <trkpt lat="43.82758" lon="6.94721">
        <ele>1432.02</ele>
        <time>2021-01-06T11:09:39Z</time>
      </trkpt>
      <trkpt lat="43.82755" lon="6.94723">
        <ele>1432.5</ele>
        <time>2021-01-06T11:09:40Z</time>
      </trkpt>
      <trkpt lat="43.82753" lon="6.94724">
        <ele>1432.5</ele>
        <time>2021-01-06T11:09:41Z</time>
      </trkpt>
      <trkpt lat="43.82751" lon="6.94725">
        <ele>1432.5</ele>
        <time>2021-01-06T11:09:42Z</time>
      </trkpt>
      <trkpt lat="43.82749" lon="6.94726">
        <ele>1432.5</ele>
        <time>2021-01-06T11:09:43Z</time>
      </trkpt>
      <trkpt lat="43.82746" lon="6.94727">
        <ele>1432.5</ele>
        <time>2021-01-06T11:09:44Z</time>
      </trkpt>
      <trkpt lat="43.82744" lon="6.94728">
        <ele>1432.5</ele>
        <time>2021-01-06T11:09:45Z</time>
      </trkpt>
      <trkpt lat="43.82741" lon="6.94729">
        <ele>1432.5</ele>
        <time>2021-01-06T11:09:46Z</time>
      </trkpt>
      <trkpt lat="43.82739" lon="6.9473">
        <ele>1432.5</ele>
        <time>2021-01-06T11:09:47Z</time>
      </trkpt>
      <trkpt lat="43.82737" lon="6.94731">
        <ele>1432.5</ele>
        <time>2021-01-06T11:09:48Z</time>
      </trkpt>
      <trkpt lat="43.82734" lon="6.94732">
        <ele>1432.5</ele>
        <time>2021-01-06T11:09:49Z</time>
      </trkpt>
      <trkpt lat="43.82732" lon="6.94733">
        <ele>1432.98</ele>
        <time>2021-01-06T11:09:50Z</time>
      </trkpt>
      <trkpt lat="43.82731" lon="6.94734">
        <ele>1432.98</ele>
        <time>2021-01-06T11:09:51Z</time>
      </trkpt>
      <trkpt lat="43.82729" lon="6.94734">
        <ele>1432.98</ele>
        <time>2021-01-06T11:09:52Z</time>
      </trkpt>
      <trkpt lat="43.82727" lon="6.94735">
        <ele>1432.98</ele>
        <time>2021-01-06T11:09:53Z</time>
      </trkpt>
      <trkpt lat="43.82713" lon="6.94741">
        <ele>1434.42</ele>
        <time>2021-01-06T11:10:00Z</time>
      </trkpt>
      <trkpt lat="43.82711" lon="6.94742">
        <ele>1434.42</ele>
        <time>2021-01-06T11:10:01Z</time>
      </trkpt>
      <trkpt lat="43.82703" lon="6.94747">
        <ele>1435.87</ele>
        <time>2021-01-06T11:10:06Z</time>
      </trkpt>
      <trkpt lat="43.82701" lon="6.94748">
        <ele>1435.87</ele>
        <time>2021-01-06T11:10:07Z</time>
      </trkpt>
      <trkpt lat="43.82699" lon="6.94749">
        <ele>1435.87</ele>
        <time>2021-01-06T11:10:08Z</time>
      </trkpt>
      <trkpt lat="43.82697" lon="6.94749">
        <ele>1435.87</ele>
        <time>2021-01-06T11:10:09Z</time>
      </trkpt>
      <trkpt lat="43.82696" lon="6.94751">
        <ele>1435.87</ele>
        <time>2021-01-06T11:10:10Z</time>
      </trkpt>
      <trkpt lat="43.82693" lon="6.94752">
        <ele>1435.87</ele>
        <time>2021-01-06T11:10:11Z</time>
      </trkpt>
      <trkpt lat="43.82691" lon="6.94754">
        <ele>1436.35</ele>
        <time>2021-01-06T11:10:12Z</time>
      </trkpt>
      <trkpt lat="43.8269" lon="6.94756">
        <ele>1436.35</ele>
        <time>2021-01-06T11:10:13Z</time>
      </trkpt>
      <trkpt lat="43.82688" lon="6.94757">
        <ele>1436.35</ele>
        <time>2021-01-06T11:10:14Z</time>
      </trkpt>
      <trkpt lat="43.8267" lon="6.94772">
        <ele>1436.83</ele>
        <time>2021-01-06T11:10:24Z</time>
      </trkpt>
      <trkpt lat="43.82643" lon="6.94789">
        <ele>1435.87</ele>
        <time>2021-01-06T11:10:35Z</time>
      </trkpt>
      <trkpt lat="43.82608" lon="6.948">
        <ele>1436.35</ele>
        <time>2021-01-06T11:10:46Z</time>
      </trkpt>
      <trkpt lat="43.82604" lon="6.948">
        <ele>1436.83</ele>
        <time>2021-01-06T11:10:48Z</time>
      </trkpt>
      <trkpt lat="43.82602" lon="6.94801">
        <ele>1436.83</ele>
        <time>2021-01-06T11:10:49Z</time>
      </trkpt>
      <trkpt lat="43.826" lon="6.94802">
        <ele>1436.83</ele>
        <time>2021-01-06T11:10:50Z</time>
      </trkpt>
      <trkpt lat="43.82599" lon="6.94802">
        <ele>1436.83</ele>
        <time>2021-01-06T11:10:51Z</time>
      </trkpt>
      <trkpt lat="43.82597" lon="6.94803">
        <ele>1436.83</ele>
        <time>2021-01-06T11:10:52Z</time>
      </trkpt>
      <trkpt lat="43.82595" lon="6.94803">
        <ele>1437.31</ele>
        <time>2021-01-06T11:10:53Z</time>
      </trkpt>
      <trkpt lat="43.82594" lon="6.94804">
        <ele>1437.31</ele>
        <time>2021-01-06T11:10:54Z</time>
      </trkpt>
      <trkpt lat="43.82592" lon="6.94805">
        <ele>1437.31</ele>
        <time>2021-01-06T11:10:55Z</time>
      </trkpt>
      <trkpt lat="43.82591" lon="6.94805">
        <ele>1437.31</ele>
        <time>2021-01-06T11:10:56Z</time>
      </trkpt>
      <trkpt lat="43.82589" lon="6.94806">
        <ele>1438.27</ele>
        <time>2021-01-06T11:10:57Z</time>
      </trkpt>
      <trkpt lat="43.82587" lon="6.94807">
        <ele>1438.27</ele>
        <time>2021-01-06T11:10:58Z</time>
      </trkpt>
      <trkpt lat="43.82585" lon="6.94807">
        <ele>1438.27</ele>
        <time>2021-01-06T11:10:59Z</time>
      </trkpt>
      <trkpt lat="43.82584" lon="6.94808">
        <ele>1438.27</ele>
        <time>2021-01-06T11:11:00Z</time>
      </trkpt>
      <trkpt lat="43.82567" lon="6.94814">
        <ele>1439.71</ele>
        <time>2021-01-06T11:11:11Z</time>
      </trkpt>
      <trkpt lat="43.8255" lon="6.94826">
        <ele>1441.15</ele>
        <time>2021-01-06T11:11:23Z</time>
      </trkpt>
      <trkpt lat="43.82532" lon="6.94837">
        <ele>1442.11</ele>
        <time>2021-01-06T11:11:34Z</time>
      </trkpt>
      <trkpt lat="43.8253" lon="6.94838">
        <ele>1442.11</ele>
        <time>2021-01-06T11:11:35Z</time>
      </trkpt>
      <trkpt lat="43.82528" lon="6.94839">
        <ele>1442.11</ele>
        <time>2021-01-06T11:11:36Z</time>
      </trkpt>
      <trkpt lat="43.82527" lon="6.9484">
        <ele>1442.11</ele>
        <time>2021-01-06T11:11:37Z</time>
      </trkpt>
      <trkpt lat="43.82525" lon="6.94841">
        <ele>1442.11</ele>
        <time>2021-01-06T11:11:38Z</time>
      </trkpt>
      <trkpt lat="43.82523" lon="6.94842">
        <ele>1442.11</ele>
        <time>2021-01-06T11:11:39Z</time>
      </trkpt>
      <trkpt lat="43.82521" lon="6.94843">
        <ele>1442.11</ele>
        <time>2021-01-06T11:11:40Z</time>
      </trkpt>
      <trkpt lat="43.82519" lon="6.94845">
        <ele>1442.11</ele>
        <time>2021-01-06T11:11:41Z</time>
      </trkpt>
      <trkpt lat="43.82518" lon="6.94846">
        <ele>1442.11</ele>
        <time>2021-01-06T11:11:42Z</time>
      </trkpt>
      <trkpt lat="43.82516" lon="6.94848">
        <ele>1442.11</ele>
        <time>2021-01-06T11:11:43Z</time>
      </trkpt>
      <trkpt lat="43.82514" lon="6.9485">
        <ele>1442.11</ele>
        <time>2021-01-06T11:11:44Z</time>
      </trkpt>
      <trkpt lat="43.82491" lon="6.94868">
        <ele>1442.11</ele>
        <time>2021-01-06T11:11:55Z</time>
      </trkpt>
      <trkpt lat="43.82485" lon="6.94876">
        <ele>1440.67</ele>
        <time>2021-01-06T11:11:58Z</time>
      </trkpt>
      <trkpt lat="43.82474" lon="6.94901">
        <ele>1439.71</ele>
        <time>2021-01-06T11:12:05Z</time>
      </trkpt>
      <trkpt lat="43.82467" lon="6.94934">
        <ele>1439.23</ele>
        <time>2021-01-06T11:12:12Z</time>
      </trkpt>
      <trkpt lat="43.82468" lon="6.9494">
        <ele>1438.27</ele>
        <time>2021-01-06T11:12:13Z</time>
      </trkpt>
      <trkpt lat="43.8247" lon="6.94945">
        <ele>1438.27</ele>
        <time>2021-01-06T11:12:14Z</time>
      </trkpt>
      <trkpt lat="43.82473" lon="6.94956">
        <ele>1437.31</ele>
        <time>2021-01-06T11:12:16Z</time>
      </trkpt>
      <trkpt lat="43.82496" lon="6.94997">
        <ele>1436.35</ele>
        <time>2021-01-06T11:12:29Z</time>
      </trkpt>
      <trkpt lat="43.8251" lon="6.95005">
        <ele>1433.46</ele>
        <time>2021-01-06T11:12:33Z</time>
      </trkpt>
      <trkpt lat="43.82515" lon="6.95006">
        <ele>1432.98</ele>
        <time>2021-01-06T11:12:34Z</time>
      </trkpt>
      <trkpt lat="43.82534" lon="6.95008">
        <ele>1428.18</ele>
        <time>2021-01-06T11:12:37Z</time>
      </trkpt>
      <trkpt lat="43.8255" lon="6.95007">
        <ele>1426.73</ele>
        <time>2021-01-06T11:12:39Z</time>
      </trkpt>
      <trkpt lat="43.82568" lon="6.95006">
        <ele>1425.29</ele>
        <time>2021-01-06T11:12:41Z</time>
      </trkpt>
      <trkpt lat="43.82591" lon="6.95004">
        <ele>1421.93</ele>
        <time>2021-01-06T11:12:44Z</time>
      </trkpt>
      <trkpt lat="43.82675" lon="6.95005">
        <ele>1418.56</ele>
        <time>2021-01-06T11:12:55Z</time>
      </trkpt>
      <trkpt lat="43.82706" lon="6.95006">
        <ele>1416.64</ele>
        <time>2021-01-06T11:12:59Z</time>
      </trkpt>
      <trkpt lat="43.82747" lon="6.9501">
        <ele>1414.24</ele>
        <time>2021-01-06T11:13:05Z</time>
      </trkpt>
      <trkpt lat="43.82809" lon="6.95016">
        <ele>1412.79</ele>
        <time>2021-01-06T11:13:18Z</time>
      </trkpt>
      <trkpt lat="43.82839" lon="6.95019">
        <ele>1409.91</ele>
        <time>2021-01-06T11:13:26Z</time>
      </trkpt>
      <trkpt lat="43.82875" lon="6.95024">
        <ele>1407.99</ele>
        <time>2021-01-06T11:13:34Z</time>
      </trkpt>
      <trkpt lat="43.82883" lon="6.95027">
        <ele>1407.03</ele>
        <time>2021-01-06T11:13:36Z</time>
      </trkpt>
      <trkpt lat="43.82892" lon="6.95031">
        <ele>1407.03</ele>
        <time>2021-01-06T11:13:38Z</time>
      </trkpt>
      <trkpt lat="43.82896" lon="6.95033">
        <ele>1407.51</ele>
        <time>2021-01-06T11:13:39Z</time>
      </trkpt>
      <trkpt lat="43.82899" lon="6.95035">
        <ele>1407.51</ele>
        <time>2021-01-06T11:13:40Z</time>
      </trkpt>
      <trkpt lat="43.82902" lon="6.95037">
        <ele>1407.51</ele>
        <time>2021-01-06T11:13:41Z</time>
      </trkpt>
      <trkpt lat="43.82905" lon="6.9504">
        <ele>1408.95</ele>
        <time>2021-01-06T11:13:42Z</time>
      </trkpt>
      <trkpt lat="43.82908" lon="6.95042">
        <ele>1408.95</ele>
        <time>2021-01-06T11:13:43Z</time>
      </trkpt>
      <trkpt lat="43.82912" lon="6.95044">
        <ele>1407.03</ele>
        <time>2021-01-06T11:13:44Z</time>
      </trkpt>
      <trkpt lat="43.82924" lon="6.95051">
        <ele>1407.51</ele>
        <time>2021-01-06T11:13:47Z</time>
      </trkpt>
      <trkpt lat="43.82928" lon="6.95054">
        <ele>1406.07</ele>
        <time>2021-01-06T11:13:48Z</time>
      </trkpt>
      <trkpt lat="43.82933" lon="6.95057">
        <ele>1406.07</ele>
        <time>2021-01-06T11:13:49Z</time>
      </trkpt>
      <trkpt lat="43.82959" lon="6.95073">
        <ele>1403.18</ele>
        <time>2021-01-06T11:13:54Z</time>
      </trkpt>
      <trkpt lat="43.83" lon="6.95094">
        <ele>1403.66</ele>
        <time>2021-01-06T11:14:05Z</time>
      </trkpt>
      <trkpt lat="43.83005" lon="6.95097">
        <ele>1404.62</ele>
        <time>2021-01-06T11:14:07Z</time>
      </trkpt>
      <trkpt lat="43.83007" lon="6.95097">
        <ele>1404.62</ele>
        <time>2021-01-06T11:14:08Z</time>
      </trkpt>
      <trkpt lat="43.8301" lon="6.95098">
        <ele>1405.1</ele>
        <time>2021-01-06T11:14:09Z</time>
      </trkpt>
      <trkpt lat="43.83034" lon="6.95106">
        <ele>1406.07</ele>
        <time>2021-01-06T11:14:19Z</time>
      </trkpt>
      <trkpt lat="43.83061" lon="6.95109">
        <ele>1406.07</ele>
        <time>2021-01-06T11:14:29Z</time>
      </trkpt>
      <trkpt lat="43.8309" lon="6.95108">
        <ele>1405.58</ele>
        <time>2021-01-06T11:14:38Z</time>
      </trkpt>
      <trkpt lat="43.83115" lon="6.95114">
        <ele>1403.66</ele>
        <time>2021-01-06T11:14:46Z</time>
      </trkpt>
      <trkpt lat="43.8313" lon="6.95132">
        <ele>1405.1</ele>
        <time>2021-01-06T11:14:53Z</time>
      </trkpt>
      <trkpt lat="43.83131" lon="6.95135">
        <ele>1405.58</ele>
        <time>2021-01-06T11:14:54Z</time>
      </trkpt>
      <trkpt lat="43.83132" lon="6.95138">
        <ele>1405.58</ele>
        <time>2021-01-06T11:14:55Z</time>
      </trkpt>
      <trkpt lat="43.83132" lon="6.95142">
        <ele>1405.58</ele>
        <time>2021-01-06T11:14:56Z</time>
      </trkpt>
      <trkpt lat="43.83132" lon="6.95145">
        <ele>1405.58</ele>
        <time>2021-01-06T11:14:57Z</time>
      </trkpt>
      <trkpt lat="43.83133" lon="6.95148">
        <ele>1405.58</ele>
        <time>2021-01-06T11:14:58Z</time>
      </trkpt>
      <trkpt lat="43.83137" lon="6.95166">
        <ele>1406.55</ele>
        <time>2021-01-06T11:15:12Z</time>
      </trkpt>
    </trkseg>
  </trk>
</gpx>